Observation data for Mertzon on 07/21/2019      Previous  Date  Next       Current Mesonet Observations  Soil Data  Daily Summary Page  Observations in Plain Language
KME1 210500Z 20003KT 23/14 A2993 RMK A01 T02330137  RH  055%=      5-min Rain = 0
KME1 210501Z 21003KT 23/14 A2993 RMK A01 T02320137  RH  055%=      5-min Rain = 0
KME1 210502Z 21003KT 23/14 A2993 RMK A01 T02310135  RH  055%=      5-min Rain = 0
KME1 210503Z 21003KT 23/14 A2993 RMK A01 T02320135  RH  054%=      5-min Rain = 0
KME1 210504Z 21003KT 23/14 A2993 RMK A01 T02330136  RH  054%=      5-min Rain = 0
KME1 210505Z 21003KT 23/14 A2993 RMK A01 T02330136  RH  054%=      5-min Rain = 0
KME1 210506Z 22002KT 23/14 A2993 RMK A01 T02330136  RH  054%=      5-min Rain = 0
KME1 210507Z 22002KT 23/14 A2993 RMK A01 T02330136  RH  054%=      5-min Rain = 0
KME1 210508Z 22003KT 23/14 A2993 RMK A01 T02330137  RH  055%=      5-min Rain = 0
KME1 210509Z 22003KT 23/14 A2993 RMK A01 T02320137  RH  055%=      5-min Rain = 0
KME1 210510Z 22003KT 23/14 A2993 RMK A01 T02320137  RH  055%=      5-min Rain = 0
KME1 210511Z 22002KT 23/14 A2993 RMK A01 T02310139  RH  056%=      5-min Rain = 0
KME1 210512Z 22002KT 23/14 A2993 RMK A01 T02300140  RH  057%=      5-min Rain = 0
KME1 210513Z 22002KT 23/14 A2994 RMK A01 T02280139  RH  057%=      5-min Rain = 0
KME1 210514Z 22002KT 23/14 A2994 RMK A01 T02260138  RH  058%=      5-min Rain = 0
KME1 210515Z 21002KT 23/14 A2994 RMK A01 T02250137  RH  057%=      5-min Rain = 0
KME1 210516Z 22002KT 23/14 A2994 RMK A01 T02260139  RH  058%=      5-min Rain = 0
KME1 210517Z 22002KT 23/14 A2994 RMK A01 T02250139  RH  058%=      5-min Rain = 0
KME1 210518Z 22002KT 23/14 A2994 RMK A01 T02250138  RH  058%=      5-min Rain = 0
KME1 210519Z 21002KT 22/14 A2994 RMK A01 T02240139  RH  059%=      5-min Rain = 0
KME1 210520Z 22002KT 22/14 A2994 RMK A01 T02230139  RH  059%=      5-min Rain = 0
KME1 210521Z 21002KT 22/14 A2994 RMK A01 T02220139  RH  059%=      5-min Rain = 0
KME1 210522Z 22002KT 22/14 A2994 RMK A01 T02210139  RH  060%=      5-min Rain = 0
KME1 210523Z 21002KT 22/14 A2994 RMK A01 T02210139  RH  060%=      5-min Rain = 0
KME1 210524Z 21001KT 22/14 A2994 RMK A01 T02210141  RH  060%=      5-min Rain = 0
KME1 210525Z 21002KT 22/14 A2994 RMK A01 T02200140  RH  061%=      5-min Rain = 0
KME1 210526Z 20001KT 22/14 A2994 RMK A01 T02190139  RH  060%=      5-min Rain = 0
KME1 210527Z 20001KT 22/14 A2994 RMK A01 T02190140  RH  061%=      5-min Rain = 0
KME1 210528Z 21001KT 22/14 A2994 RMK A01 T02180139  RH  061%=      5-min Rain = 0
KME1 210529Z 21001KT 22/14 A2994 RMK A01 T02200138  RH  059%=      5-min Rain = 0
KME1 210530Z 00000KT 22/14 A2994 RMK A01 T02220140  RH  060%=      5-min Rain = 0
KME1 210531Z 22001KT 22/14 A2994 RMK A01 T02220139  RH  059%=      5-min Rain = 0
KME1 210532Z 19001KT 22/14 A2994 RMK A01 T02230138  RH  059%=      5-min Rain = 0
KME1 210533Z 24000KT 22/14 A2994 RMK A01 T02240140  RH  059%=      5-min Rain = 0
KME1 210534Z 24000KT 22/14 A2994 RMK A01 T02230140  RH  060%=      5-min Rain = 0
KME1 210535Z 21001KT 22/14 A2994 RMK A01 T02220141  RH  060%=      5-min Rain = 0
KME1 210536Z 23001KT 22/14 A2994 RMK A01 T02210142  RH  061%=      5-min Rain = 0
KME1 210537Z 23000KT 22/14 A2994 RMK A01 T02190142  RH  061%=      5-min Rain = 0
KME1 210538Z 00000KT 22/14 A2994 RMK A01 T02180142  RH  062%=      5-min Rain = 0
KME1 210539Z 22000KT 22/14 A2994 RMK A01 T02160141  RH  062%=      5-min Rain = 0
KME1 210540Z 20000KT 22/14 A2994 RMK A01 T02160139  RH  062%=      5-min Rain = 0
KME1 210541Z 17000KT 22/14 A2994 RMK A01 T02180141  RH  062%=      5-min Rain = 0
KME1 210542Z 00000KT 22/14 A2994 RMK A01 T02180140  RH  061%=      5-min Rain = 0
KME1 210543Z 17000KT 22/14 A2994 RMK A01 T02190140  RH  061%=      5-min Rain = 0
KME1 210544Z 22000KT 22/14 A2994 RMK A01 T02200142  RH  061%=      5-min Rain = 0
KME1 210545Z 16000KT 22/14 A2994 RMK A01 T02200142  RH  061%=      5-min Rain = 0
KME1 210546Z 17001KT 22/14 A2994 RMK A01 T02190143  RH  062%=      5-min Rain = 0
KME1 210547Z 18001KT 22/14 A2994 RMK A01 T02180143  RH  062%=      5-min Rain = 0
KME1 210548Z 19002KT 22/14 A2994 RMK A01 T02160143  RH  063%=      5-min Rain = 0
KME1 210549Z 20001KT 22/14 A2994 RMK A01 T02150142  RH  063%=      5-min Rain = 0
KME1 210550Z 18001KT 22/14 A2994 RMK A01 T02150144  RH  064%=      5-min Rain = 0
KME1 210551Z 19001KT 21/14 A2994 RMK A01 T02140143  RH  064%=      5-min Rain = 0
KME1 210552Z 19002KT 21/14 A2994 RMK A01 T02140141  RH  063%=      5-min Rain = 0
KME1 210553Z 17002KT 21/14 A2994 RMK A01 T02140142  RH  063%=      5-min Rain = 0
KME1 210554Z 18002KT 22/14 A2994 RMK A01 T02150144  RH  064%=      5-min Rain = 0
KME1 210555Z 19002KT 21/15 A2994 RMK A01 T02140145  RH  065%=      5-min Rain = 0
KME1 210556Z 17003KT 21/15 A2994 RMK A01 T02130145  RH  065%=      5-min Rain = 0
KME1 210557Z 17003KT 21/14 A2994 RMK A01 T02110143  RH  065%=      5-min Rain = 0
KME1 210558Z 16003KT 21/14 A2994 RMK A01 T02110143  RH  065%=      5-min Rain = 0
KME1 210559Z 16003KT 21/14 A2994 RMK A01 T02100144  RH  066%=      5-min Rain = 0
KME1 210600Z 16003KT 21/14 A2994 RMK A01 T02090143  RH  066%=      5-min Rain = 0
KME1 210601Z 16003KT 21/14 A2994 RMK A01 T02090144  RH  066%=      5-min Rain = 0
KME1 210602Z 15003KT 21/14 A2994 RMK A01 T02080143  RH  067%=      5-min Rain = 0
KME1 210603Z 15003KT 21/14 A2994 RMK A01 T02080142  RH  066%=      5-min Rain = 0
KME1 210604Z 16003KT 21/14 A2994 RMK A01 T02070142  RH  066%=      5-min Rain = 0
KME1 210605Z 16003KT 21/14 A2994 RMK A01 T02080142  RH  066%=      5-min Rain = 0
KME1 210606Z 15003KT 21/14 A2994 RMK A01 T02090144  RH  066%=      5-min Rain = 0
KME1 210607Z 15003KT 21/14 A2994 RMK A01 T02100143  RH  066%=      5-min Rain = 0
KME1 210608Z 16003KT 21/14 A2994 RMK A01 T02110143  RH  065%=      5-min Rain = 0
KME1 210609Z 16003KT 21/14 A2994 RMK A01 T02140143  RH  064%=      5-min Rain = 0
KME1 210610Z 17003KT 22/14 A2994 RMK A01 T02150143  RH  064%=      5-min Rain = 0
KME1 210611Z 17003KT 22/14 A2994 RMK A01 T02170144  RH  063%=      5-min Rain = 0
KME1 210612Z 16005KT 22/15 A2994 RMK A01 T02190145  RH  063%=      5-min Rain = 0
KME1 210613Z 16004KT 22/15 A2994 RMK A01 T02240146  RH  061%=      5-min Rain = 0
KME1 210614Z 16005KT 23/15 A2994 RMK A01 T02280146  RH  060%=      5-min Rain = 0
KME1 210615Z 17006KT 23/15 A2994 RMK A01 T02320147  RH  059%=      5-min Rain = 0
KME1 210616Z 16008KT 24/15 A2994 RMK A01 T02350149  RH  059%=      5-min Rain = 0
KME1 210617Z 16005KT 24/15 A2994 RMK A01 T02390151  RH  058%=      5-min Rain = 0
KME1 210618Z 16005KT 24/15 A2994 RMK A01 T02420151  RH  057%=      5-min Rain = 0
KME1 210619Z 16006KT 24/15 A2994 RMK A01 T02440152  RH  056%=      5-min Rain = 0
KME1 210620Z 16006KT 25/15 A2994 RMK A01 T02470153  RH  056%=      5-min Rain = 0
KME1 210621Z 16007KT 25/15 A2994 RMK A01 T02490153  RH  055%=      5-min Rain = 0
KME1 210622Z 16008KT 25/15 A2994 RMK A01 T02500154  RH  055%=      5-min Rain = 0
KME1 210623Z 16010KT 25/15 A2994 RMK A01 T02520154  RH  055%=      5-min Rain = 0
KME1 210624Z 16009KT 26/16 A2994 RMK A01 T02550155  RH  054%=      5-min Rain = 0
KME1 210625Z 16008KT 26/16 A2994 RMK A01 T02580156  RH  053%=      5-min Rain = 0
KME1 210626Z 17010KT 26/16 A2994 RMK A01 T02590156  RH  053%=      5-min Rain = 0
KME1 210627Z 17008KT 26/16 A2994 RMK A01 T02600156  RH  053%=      5-min Rain = 0
KME1 210628Z 17008KT 26/16 A2994 RMK A01 T02620157  RH  052%=      5-min Rain = 0
KME1 210629Z 16009KT 26/16 A2994 RMK A01 T02630157  RH  052%=      5-min Rain = 0
KME1 210630Z 17010KT 26/16 A2994 RMK A01 T02640157  RH  052%=      5-min Rain = 0
KME1 210631Z 17010KT 26/16 A2994 RMK A01 T02640158  RH  052%=      5-min Rain = 0
KME1 210632Z 17009KT 27/16 A2994 RMK A01 T02650158  RH  052%=      5-min Rain = 0
KME1 210633Z 17008KT 27/16 A2994 RMK A01 T02650158  RH  052%=      5-min Rain = 0
KME1 210634Z 17009KT 27/16 A2994 RMK A01 T02650158  RH  052%=      5-min Rain = 0
KME1 210635Z 17009KT 26/16 A2994 RMK A01 T02640158  RH  052%=      5-min Rain = 0
KME1 210636Z 16007KT 26/16 A2994 RMK A01 T02640158  RH  052%=      5-min Rain = 0
KME1 210637Z 17007KT 26/16 A2994 RMK A01 T02640158  RH  052%=      5-min Rain = 0
KME1 210638Z 17007KT 26/16 A2994 RMK A01 T02640159  RH  052%=      5-min Rain = 0
KME1 210639Z 17011KT 26/16 A2994 RMK A01 T02630159  RH  053%=      5-min Rain = 0
KME1 210640Z 16010KT 26/16 A2994 RMK A01 T02630159  RH  053%=      5-min Rain = 0
KME1 210641Z 16009KT 26/16 A2994 RMK A01 T02640160  RH  053%=      5-min Rain = 0
KME1 210642Z 17007KT 27/16 A2994 RMK A01 T02650160  RH  053%=      5-min Rain = 0
KME1 210643Z 17009KT 26/16 A2994 RMK A01 T02640161  RH  053%=      5-min Rain = 0
KME1 210644Z 17007KT 26/16 A2994 RMK A01 T02640161  RH  053%=      5-min Rain = 0
KME1 210645Z 16007KT 26/16 A2994 RMK A01 T02640161  RH  053%=      5-min Rain = 0
KME1 210646Z 18009KT 26/16 A2994 RMK A01 T02640161  RH  053%=      5-min Rain = 0
KME1 210647Z 17008KT 26/16 A2994 RMK A01 T02640162  RH  053%=      5-min Rain = 0
KME1 210648Z 17008KT 26/16 A2994 RMK A01 T02640162  RH  053%=      5-min Rain = 0
KME1 210649Z 17007KT 26/16 A2994 RMK A01 T02640162  RH  054%=      5-min Rain = 0
KME1 210650Z 17009KT 26/16 A2994 RMK A01 T02640163  RH  054%=      5-min Rain = 0
KME1 210651Z 17009KT 26/16 A2994 RMK A01 T02630163  RH  054%=      5-min Rain = 0
KME1 210652Z 16007KT 26/16 A2994 RMK A01 T02630163  RH  054%=      5-min Rain = 0
KME1 210653Z 16009KT 26/16 A2994 RMK A01 T02640163  RH  054%=      5-min Rain = 0
KME1 210654Z 17010KT 26/16 A2994 RMK A01 T02640164  RH  054%=      5-min Rain = 0
KME1 210655Z 16009KT 26/16 A2994 RMK A01 T02640164  RH  054%=      5-min Rain = 0
KME1 210656Z 17009KT 26/16 A2994 RMK A01 T02640164  RH  054%=      5-min Rain = 0
KME1 210657Z 17008KT 26/17 A2994 RMK A01 T02640165  RH  054%=      5-min Rain = 0
KME1 210658Z 17008KT 26/17 A2994 RMK A01 T02640165  RH  054%=      5-min Rain = 0
KME1 210659Z 18007KT 26/17 A2994 RMK A01 T02630165  RH  055%=      5-min Rain = 0
KME1 210700Z 17007KT 26/17 A2994 RMK A01 T02630165  RH  055%=      5-min Rain = 0
KME1 210701Z 17008KT 26/17 A2994 RMK A01 T02630165  RH  055%=      5-min Rain = 0
KME1 210702Z 17008KT 26/17 A2994 RMK A01 T02620165  RH  055%=      5-min Rain = 0
KME1 210703Z 17007KT 26/17 A2994 RMK A01 T02630165  RH  055%=      5-min Rain = 0
KME1 210704Z 17007KT 26/17 A2994 RMK A01 T02630165  RH  055%=      5-min Rain = 0
KME1 210705Z 18007KT 26/17 A2994 RMK A01 T02630165  RH  055%=      5-min Rain = 0
KME1 210706Z 17006KT 26/17 A2994 RMK A01 T02620165  RH  055%=      5-min Rain = 0
KME1 210707Z 18006KT 26/17 A2994 RMK A01 T02610165  RH  056%=      5-min Rain = 0
KME1 210708Z 17009KT 26/17 A2994 RMK A01 T02600165  RH  056%=      5-min Rain = 0
KME1 210709Z 18008KT 26/17 A2994 RMK A01 T02600166  RH  056%=      5-min Rain = 0
KME1 210710Z 18007KT 26/17 A2994 RMK A01 T02600166  RH  056%=      5-min Rain = 0
KME1 210711Z 17005KT 26/17 A2994 RMK A01 T02600166  RH  056%=      5-min Rain = 0
KME1 210712Z 18005KT 26/17 A2994 RMK A01 T02590166  RH  056%=      5-min Rain = 0
KME1 210713Z 18006KT 26/17 A2994 RMK A01 T02590166  RH  056%=      5-min Rain = 0
KME1 210714Z 18006KT 26/17 A2994 RMK A01 T02580166  RH  057%=      5-min Rain = 0
KME1 210715Z 18007KT 26/17 A2994 RMK A01 T02570166  RH  057%=      5-min Rain = 0
KME1 210716Z 18007KT 26/17 A2994 RMK A01 T02570166  RH  057%=      5-min Rain = 0
KME1 210717Z 18008KT 26/17 A2993 RMK A01 T02560166  RH  057%=      5-min Rain = 0
KME1 210718Z 18007KT 26/17 A2993 RMK A01 T02570166  RH  057%=      5-min Rain = 0
KME1 210719Z 18007KT 26/17 A2993 RMK A01 T02570166  RH  057%=      5-min Rain = 0
KME1 210720Z 18006KT 26/17 A2993 RMK A01 T02560166  RH  057%=      5-min Rain = 0
KME1 210721Z 19006KT 26/17 A2993 RMK A01 T02560166  RH  058%=      5-min Rain = 0
KME1 210722Z 18007KT 26/17 A2993 RMK A01 T02550166  RH  058%=      5-min Rain = 0
KME1 210723Z 18007KT 26/17 A2993 RMK A01 T02550166  RH  058%=      5-min Rain = 0
KME1 210724Z 18006KT 26/17 A2993 RMK A01 T02550166  RH  058%=      5-min Rain = 0
KME1 210725Z 18008KT 25/17 A2993 RMK A01 T02540166  RH  058%=      5-min Rain = 0
KME1 210726Z 18008KT 25/17 A2993 RMK A01 T02540167  RH  058%=      5-min Rain = 0
KME1 210727Z 18008KT 25/17 A2993 RMK A01 T02540166  RH  058%=      5-min Rain = 0
KME1 210728Z 18007G12KT 25/17 A2993 RMK A01 T02540167  RH  058%=      5-min Rain = 0
KME1 210729Z 18008KT 25/17 A2993 RMK A01 T02530167  RH  059%=      5-min Rain = 0
KME1 210730Z 18010KT 25/17 A2993 RMK A01 T02530167  RH  059%=      5-min Rain = 0
KME1 210731Z 18009KT 25/17 A2993 RMK A01 T02530167  RH  059%=      5-min Rain = 0
KME1 210732Z 18009KT 25/17 A2993 RMK A01 T02540167  RH  059%=      5-min Rain = 0
KME1 210733Z 18007KT 25/17 A2993 RMK A01 T02540168  RH  059%=      5-min Rain = 0
KME1 210734Z 18007KT 25/17 A2993 RMK A01 T02540168  RH  059%=      5-min Rain = 0
KME1 210735Z 18008KT 25/17 A2993 RMK A01 T02540168  RH  059%=      5-min Rain = 0
KME1 210736Z 18008KT 25/17 A2993 RMK A01 T02540168  RH  059%=      5-min Rain = 0
KME1 210737Z 19007KT 25/17 A2993 RMK A01 T02530168  RH  059%=      5-min Rain = 0
KME1 210738Z 18007KT 25/17 A2993 RMK A01 T02540169  RH  059%=      5-min Rain = 0
KME1 210739Z 18008KT 25/17 A2993 RMK A01 T02530169  RH  060%=      5-min Rain = 0
KME1 210740Z 19007KT 25/17 A2993 RMK A01 T02530169  RH  060%=      5-min Rain = 0
KME1 210741Z 18007KT 25/17 A2993 RMK A01 T02530169  RH  060%=      5-min Rain = 0
KME1 210742Z 18008KT 25/17 A2993 RMK A01 T02530170  RH  060%=      5-min Rain = 0
KME1 210743Z 18008KT 25/17 A2993 RMK A01 T02520169  RH  060%=      5-min Rain = 0
KME1 210744Z 18007KT 25/17 A2993 RMK A01 T02520170  RH  060%=      5-min Rain = 0
KME1 210745Z 18007G12KT 25/17 A2993 RMK A01 T02520170  RH  060%=      5-min Rain = 0
KME1 210746Z 18007KT 25/17 A2994 RMK A01 T02510170  RH  061%=      5-min Rain = 0
KME1 210747Z 18007KT 25/17 A2994 RMK A01 T02500171  RH  061%=      5-min Rain = 0
KME1 210748Z 18009KT 25/17 A2994 RMK A01 T02500170  RH  061%=      5-min Rain = 0
KME1 210749Z 18009KT 25/17 A2994 RMK A01 T02490170  RH  062%=      5-min Rain = 0
KME1 210750Z 18006KT 25/17 A2994 RMK A01 T02500171  RH  061%=      5-min Rain = 0
KME1 210751Z 18007G12KT 25/17 A2994 RMK A01 T02500171  RH  061%=      5-min Rain = 0
KME1 210752Z 18009KT 25/17 A2994 RMK A01 T02500171  RH  061%=      5-min Rain = 0
KME1 210753Z 18008KT 25/17 A2994 RMK A01 T02500171  RH  061%=      5-min Rain = 0
KME1 210754Z 18007KT 25/17 A2994 RMK A01 T02500171  RH  062%=      5-min Rain = 0
KME1 210755Z 18006KT 25/17 A2994 RMK A01 T02500171  RH  062%=      5-min Rain = 0
KME1 210756Z 18008KT 25/17 A2994 RMK A01 T02500172  RH  062%=      5-min Rain = 0
KME1 210757Z 18007KT 25/17 A2994 RMK A01 T02500172  RH  062%=      5-min Rain = 0
KME1 210758Z 18007KT 25/17 A2994 RMK A01 T02490172  RH  062%=      5-min Rain = 0
KME1 210759Z 18007KT 25/17 A2994 RMK A01 T02490172  RH  062%=      5-min Rain = 0
KME1 210800Z 18007KT 25/17 A2994 RMK A01 T02480172  RH  063%=      5-min Rain = 0
KME1 210801Z 19009KT 25/17 A2994 RMK A01 T02470172  RH  063%=      5-min Rain = 0
KME1 210802Z 18007KT 25/17 A2994 RMK A01 T02470172  RH  063%=      5-min Rain = 0
KME1 210803Z 18007KT 25/17 A2994 RMK A01 T02470172  RH  063%=      5-min Rain = 0
KME1 210804Z 18007KT 25/17 A2994 RMK A01 T02480172  RH  063%=      5-min Rain = 0
KME1 210805Z 18007KT 25/17 A2994 RMK A01 T02470172  RH  063%=      5-min Rain = 0
KME1 210806Z 18007KT 25/17 A2994 RMK A01 T02470172  RH  063%=      5-min Rain = 0
KME1 210807Z 18007KT 25/17 A2994 RMK A01 T02460172  RH  063%=      5-min Rain = 0
KME1 210808Z 17009KT 25/17 A2994 RMK A01 T02460172  RH  064%=      5-min Rain = 0
KME1 210809Z 18007KT 25/17 A2994 RMK A01 T02460172  RH  064%=      5-min Rain = 0
KME1 210810Z 18007KT 25/17 A2994 RMK A01 T02460172  RH  064%=      5-min Rain = 0
KME1 210811Z 17008KT 25/17 A2994 RMK A01 T02460173  RH  064%=      5-min Rain = 0
KME1 210812Z 18010KT 25/17 A2994 RMK A01 T02450173  RH  064%=      5-min Rain = 0
KME1 210813Z 18007KT 25/17 A2994 RMK A01 T02450173  RH  064%=      5-min Rain = 0
KME1 210814Z 17007KT 25/17 A2994 RMK A01 T02460173  RH  064%=      5-min Rain = 0
KME1 210815Z 18007KT 25/17 A2994 RMK A01 T02460173  RH  064%=      5-min Rain = 0
KME1 210816Z 17006KT 25/17 A2994 RMK A01 T02450173  RH  064%=      5-min Rain = 0
KME1 210817Z 18007KT 24/17 A2994 RMK A01 T02440173  RH  065%=      5-min Rain = 0
KME1 210818Z 18007KT 24/17 A2994 RMK A01 T02430173  RH  065%=      5-min Rain = 0
KME1 210819Z 18006KT 24/17 A2994 RMK A01 T02430173  RH  065%=      5-min Rain = 0
KME1 210820Z 18006KT 24/17 A2994 RMK A01 T02430173  RH  065%=      5-min Rain = 0
KME1 210821Z 18008KT 24/17 A2994 RMK A01 T02420173  RH  065%=      5-min Rain = 0
KME1 210822Z 18006KT 24/17 A2994 RMK A01 T02430173  RH  065%=      5-min Rain = 0
KME1 210823Z 18006KT 24/17 A2994 RMK A01 T02430173  RH  065%=      5-min Rain = 0
KME1 210824Z 19006KT 24/17 A2994 RMK A01 T02420173  RH  065%=      5-min Rain = 0
KME1 210825Z 18006KT 24/17 A2994 RMK A01 T02410173  RH  066%=      5-min Rain = 0
KME1 210826Z 18006KT 24/17 A2994 RMK A01 T02410174  RH  066%=      5-min Rain = 0
KME1 210827Z 18005KT 24/17 A2994 RMK A01 T02400173  RH  066%=      5-min Rain = 0
KME1 210828Z 18006KT 24/17 A2994 RMK A01 T02400173  RH  066%=      5-min Rain = 0
KME1 210829Z 19005KT 24/17 A2994 RMK A01 T02390173  RH  067%=      5-min Rain = 0
KME1 210830Z 19004KT 24/17 A2994 RMK A01 T02390173  RH  067%=      5-min Rain = 0
KME1 210831Z 18006KT 24/17 A2994 RMK A01 T02390174  RH  067%=      5-min Rain = 0
KME1 210832Z 18006KT 24/17 A2994 RMK A01 T02390174  RH  067%=      5-min Rain = 0
KME1 210833Z 18006KT 24/17 A2994 RMK A01 T02390174  RH  067%=      5-min Rain = 0
KME1 210834Z 18007KT 24/17 A2994 RMK A01 T02390174  RH  067%=      5-min Rain = 0
KME1 210835Z 18006KT 24/17 A2994 RMK A01 T02390174  RH  067%=      5-min Rain = 0
KME1 210836Z 18006KT 24/17 A2994 RMK A01 T02380174  RH  067%=      5-min Rain = 0
KME1 210837Z 17005KT 24/17 A2994 RMK A01 T02380174  RH  067%=      5-min Rain = 0
KME1 210838Z 17004KT 24/17 A2994 RMK A01 T02380174  RH  068%=      5-min Rain = 0
KME1 210839Z 18005KT 24/17 A2994 RMK A01 T02370174  RH  068%=      5-min Rain = 0
KME1 210840Z 16007KT 24/18 A2994 RMK A01 T02370175  RH  068%=      5-min Rain = 0
KME1 210841Z 17008KT 24/18 A2994 RMK A01 T02370175  RH  068%=      5-min Rain = 0
KME1 210842Z 17008KT 24/18 A2994 RMK A01 T02380176  RH  068%=      5-min Rain = 0
KME1 210843Z 17006KT 24/18 A2994 RMK A01 T02380176  RH  068%=      5-min Rain = 0
KME1 210844Z 17007KT 24/18 A2994 RMK A01 T02390176  RH  068%=      5-min Rain = 0
KME1 210845Z 17008KT 24/18 A2994 RMK A01 T02390176  RH  068%=      5-min Rain = 0
KME1 210846Z 17008KT 24/18 A2994 RMK A01 T02390177  RH  068%=      5-min Rain = 0
KME1 210847Z 17007KT 24/18 A2994 RMK A01 T02390177  RH  068%=      5-min Rain = 0
KME1 210848Z 17007KT 24/18 A2994 RMK A01 T02390177  RH  068%=      5-min Rain = 0
KME1 210849Z 17006KT 24/18 A2994 RMK A01 T02390177  RH  068%=      5-min Rain = 0
KME1 210850Z 17006KT 24/18 A2994 RMK A01 T02390177  RH  068%=      5-min Rain = 0
KME1 210851Z 17005KT 24/18 A2994 RMK A01 T02390177  RH  069%=      5-min Rain = 0
KME1 210852Z 17005KT 24/18 A2994 RMK A01 T02380177  RH  069%=      5-min Rain = 0
KME1 210853Z 17007KT 24/18 A2994 RMK A01 T02370177  RH  069%=      5-min Rain = 0
KME1 210854Z 17005KT 24/18 A2994 RMK A01 T02370177  RH  069%=      5-min Rain = 0
KME1 210855Z 17005KT 24/18 A2994 RMK A01 T02360178  RH  070%=      5-min Rain = 0
KME1 210856Z 17004KT 24/18 A2994 RMK A01 T02360178  RH  070%=      5-min Rain = 0
KME1 210857Z 17005KT 24/18 A2994 RMK A01 T02350178  RH  070%=      5-min Rain = 0
KME1 210858Z 18005KT 24/18 A2994 RMK A01 T02350178  RH  071%=      5-min Rain = 0
KME1 210859Z 18004KT 24/18 A2994 RMK A01 T02350178  RH  071%=      5-min Rain = 0
KME1 210900Z 17005KT 24/18 A2994 RMK A01 T02350179  RH  071%=      5-min Rain = 0
KME1 210901Z 17005KT 23/18 A2994 RMK A01 T02340178  RH  071%=      5-min Rain = 0
KME1 210902Z 17005KT 23/18 A2994 RMK A01 T02340179  RH  071%=      5-min Rain = 0
KME1 210903Z 17005KT 23/18 A2994 RMK A01 T02340179  RH  071%=      5-min Rain = 0
KME1 210904Z 17005KT 23/18 A2994 RMK A01 T02340179  RH  071%=      5-min Rain = 0
KME1 210905Z 17006KT 24/18 A2994 RMK A01 T02350179  RH  071%=      5-min Rain = 0
KME1 210906Z 16006KT 24/18 A2994 RMK A01 T02350179  RH  071%=      5-min Rain = 0
KME1 210907Z 17007KT 24/18 A2994 RMK A01 T02350180  RH  071%=      5-min Rain = 0
KME1 210908Z 17006KT 24/18 A2994 RMK A01 T02350180  RH  071%=      5-min Rain = 0
KME1 210909Z 16005KT 24/18 A2994 RMK A01 T02350180  RH  071%=      5-min Rain = 0
KME1 210910Z 17006KT 24/18 A2994 RMK A01 T02350180  RH  072%=      5-min Rain = 0
KME1 210911Z 17005KT 23/18 A2994 RMK A01 T02340181  RH  072%=      5-min Rain = 0
KME1 210912Z 17006KT 23/18 A2994 RMK A01 T02340181  RH  072%=      5-min Rain = 0
KME1 210913Z 16005KT 23/18 A2994 RMK A01 T02340181  RH  072%=      5-min Rain = 0
KME1 210914Z 16006KT 23/18 A2994 RMK A01 T02340181  RH  072%=      5-min Rain = 0
KME1 210915Z 16007KT 23/18 A2994 RMK A01 T02340181  RH  072%=      5-min Rain = 0
KME1 210916Z 16005KT 23/18 A2994 RMK A01 T02340182  RH  072%=      5-min Rain = 0
KME1 210917Z 17006KT 24/18 A2994 RMK A01 T02350182  RH  072%=      5-min Rain = 0
KME1 210918Z 16005KT 24/18 A2994 RMK A01 T02350182  RH  072%=      5-min Rain = 0
KME1 210919Z 17006KT 23/18 A2994 RMK A01 T02340182  RH  072%=      5-min Rain = 0
KME1 210920Z 16006KT 23/18 A2994 RMK A01 T02340183  RH  073%=      5-min Rain = 0
KME1 210921Z 16006KT 23/18 A2994 RMK A01 T02340183  RH  073%=      5-min Rain = 0
KME1 210922Z 17006KT 23/18 A2994 RMK A01 T02340183  RH  073%=      5-min Rain = 0
KME1 210923Z 16006KT 23/18 A2994 RMK A01 T02340183  RH  073%=      5-min Rain = 0
KME1 210924Z 16005KT 23/18 A2994 RMK A01 T02340183  RH  073%=      5-min Rain = 0
KME1 210925Z 17007KT 23/18 A2994 RMK A01 T02340183  RH  073%=      5-min Rain = 0
KME1 210926Z 17006KT 24/18 A2994 RMK A01 T02350183  RH  073%=      5-min Rain = 0
KME1 210927Z 17007KT 24/18 A2994 RMK A01 T02350183  RH  073%=      5-min Rain = 0
KME1 210928Z 17006KT 24/18 A2994 RMK A01 T02360184  RH  072%=      5-min Rain = 0
KME1 210929Z 17008KT 24/18 A2994 RMK A01 T02360184  RH  072%=      5-min Rain = 0
KME1 210930Z 17006KT 24/18 A2994 RMK A01 T02370184  RH  072%=      5-min Rain = 0
KME1 210931Z 18007G12KT 24/18 A2994 RMK A01 T02360184  RH  072%=      5-min Rain = 0
KME1 210932Z 18008KT 24/18 A2994 RMK A01 T02360184  RH  073%=      5-min Rain = 0
KME1 210933Z 17007KT 24/18 A2994 RMK A01 T02360184  RH  073%=      5-min Rain = 0
KME1 210934Z 18008KT 24/18 A2994 RMK A01 T02370184  RH  072%=      5-min Rain = 0
KME1 210935Z 17006KT 24/19 A2994 RMK A01 T02370185  RH  072%=      5-min Rain = 0
KME1 210936Z 17007KT 24/18 A2994 RMK A01 T02370184  RH  072%=      5-min Rain = 0
KME1 210937Z 17008KT 24/18 A2994 RMK A01 T02370184  RH  072%=      5-min Rain = 0
KME1 210938Z 18008KT 24/18 A2994 RMK A01 T02370184  RH  072%=      5-min Rain = 0
KME1 210939Z 17009KT 24/19 A2994 RMK A01 T02380185  RH  072%=      5-min Rain = 0
KME1 210940Z 17008KT 24/18 A2994 RMK A01 T02370184  RH  072%=      5-min Rain = 0
KME1 210941Z 17008KT 24/19 A2994 RMK A01 T02380185  RH  072%=      5-min Rain = 0
KME1 210942Z 17007KT 24/19 A2994 RMK A01 T02380185  RH  072%=      5-min Rain = 0
KME1 210943Z 17006KT 24/18 A2994 RMK A01 T02380184  RH  072%=      5-min Rain = 0
KME1 210944Z 17008KT 24/18 A2994 RMK A01 T02380184  RH  072%=      5-min Rain = 0
KME1 210945Z 18009KT 24/19 A2994 RMK A01 T02390185  RH  072%=      5-min Rain = 0
KME1 210946Z 17006KT 24/18 A2994 RMK A01 T02390184  RH  071%=      5-min Rain = 0
KME1 210947Z 18007KT 24/18 A2994 RMK A01 T02400184  RH  071%=      5-min Rain = 0
KME1 210948Z 18006KT 24/19 A2994 RMK A01 T02400185  RH  071%=      5-min Rain = 0
KME1 210949Z 18007KT 24/19 A2994 RMK A01 T02400185  RH  071%=      5-min Rain = 0
KME1 210950Z 17008KT 24/19 A2994 RMK A01 T02400185  RH  071%=      5-min Rain = 0
KME1 210951Z 17008KT 24/18 A2994 RMK A01 T02390184  RH  071%=      5-min Rain = 0
KME1 210952Z 17006KT 24/18 A2994 RMK A01 T02390184  RH  071%=      5-min Rain = 0
KME1 210953Z 17009KT 24/18 A2994 RMK A01 T02390184  RH  071%=      5-min Rain = 0
KME1 210954Z 17006KT 24/18 A2994 RMK A01 T02390184  RH  071%=      5-min Rain = 0
KME1 210955Z 17007KT 24/18 A2994 RMK A01 T02390184  RH  071%=      5-min Rain = 0
KME1 210956Z 17007KT 24/18 A2994 RMK A01 T02390184  RH  071%=      5-min Rain = 0
KME1 210957Z 17007KT 24/18 A2994 RMK A01 T02380184  RH  072%=      5-min Rain = 0
KME1 210958Z 17008KT 24/18 A2994 RMK A01 T02380184  RH  072%=      5-min Rain = 0
KME1 210959Z 17010KT 24/18 A2994 RMK A01 T02370184  RH  072%=      5-min Rain = 0
KME1 211000Z 17008KT 24/18 A2994 RMK A01 T02380184  RH  072%=      5-min Rain = 0
KME1 211001Z 17008KT 24/18 A2994 RMK A01 T02380184  RH  072%=      5-min Rain = 0
KME1 211002Z 17008G13KT 24/18 A2994 RMK A01 T02380184  RH  072%=      5-min Rain = 0
KME1 211003Z 17008KT 24/18 A2994 RMK A01 T02390184  RH  071%=      5-min Rain = 0
KME1 211004Z 18009KT 24/18 A2994 RMK A01 T02400184  RH  071%=      5-min Rain = 0
KME1 211005Z 18009KT 24/18 A2994 RMK A01 T02400184  RH  071%=      5-min Rain = 0
KME1 211006Z 17007KT 24/18 A2994 RMK A01 T02400184  RH  071%=      5-min Rain = 0
KME1 211007Z 18009KT 24/18 A2995 RMK A01 T02400184  RH  071%=      5-min Rain = 0
KME1 211008Z 18009KT 24/18 A2994 RMK A01 T02390184  RH  071%=      5-min Rain = 0
KME1 211009Z 17010KT 24/18 A2995 RMK A01 T02390184  RH  071%=      5-min Rain = 0
KME1 211010Z 17009KT 24/18 A2995 RMK A01 T02400184  RH  071%=      5-min Rain = 0
KME1 211011Z 18007KT 24/18 A2995 RMK A01 T02400184  RH  071%=      5-min Rain = 0
KME1 211012Z 17008KT 24/18 A2995 RMK A01 T02400184  RH  071%=      5-min Rain = 0
KME1 211013Z 17009KT 24/18 A2995 RMK A01 T02400184  RH  071%=      5-min Rain = 0
KME1 211014Z 18009KT 24/18 A2995 RMK A01 T02400184  RH  071%=      5-min Rain = 0
KME1 211015Z 18010KT 24/18 A2995 RMK A01 T02400183  RH  071%=      5-min Rain = 0
KME1 211016Z 18009KT 24/18 A2995 RMK A01 T02400183  RH  071%=      5-min Rain = 0
KME1 211017Z 18008KT 24/18 A2995 RMK A01 T02400183  RH  071%=      5-min Rain = 0
KME1 211018Z 17007KT 24/18 A2995 RMK A01 T02400184  RH  071%=      5-min Rain = 0
KME1 211019Z 17008KT 24/18 A2995 RMK A01 T02400183  RH  071%=      5-min Rain = 0
KME1 211020Z 17008KT 24/18 A2995 RMK A01 T02390183  RH  071%=      5-min Rain = 0
KME1 211021Z 17009KT 24/18 A2995 RMK A01 T02390183  RH  071%=      5-min Rain = 0
KME1 211022Z 18009KT 24/18 A2995 RMK A01 T02390183  RH  071%=      5-min Rain = 0
KME1 211023Z 18009KT 24/18 A2995 RMK A01 T02390183  RH  071%=      5-min Rain = 0
KME1 211024Z 18009KT 24/18 A2995 RMK A01 T02380183  RH  071%=      5-min Rain = 0
KME1 211025Z 17009KT 24/18 A2995 RMK A01 T02380183  RH  071%=      5-min Rain = 0
KME1 211026Z 17009KT 24/18 A2995 RMK A01 T02380183  RH  071%=      5-min Rain = 0
KME1 211027Z 17009KT 24/18 A2995 RMK A01 T02380183  RH  071%=      5-min Rain = 0
KME1 211028Z 17009KT 24/18 A2995 RMK A01 T02380183  RH  071%=      5-min Rain = 0
KME1 211029Z 17009KT 24/18 A2995 RMK A01 T02380183  RH  071%=      5-min Rain = 0
KME1 211030Z 18008KT 24/18 A2995 RMK A01 T02380183  RH  071%=      5-min Rain = 0
KME1 211031Z 17011KT 24/18 A2995 RMK A01 T02380183  RH  071%=      5-min Rain = 0
KME1 211032Z 17011KT 24/18 A2995 RMK A01 T02370182  RH  071%=      5-min Rain = 0
KME1 211033Z 18010KT 24/18 A2995 RMK A01 T02370182  RH  071%=      5-min Rain = 0
KME1 211034Z 17011KT 24/18 A2995 RMK A01 T02380182  RH  071%=      5-min Rain = 0
KME1 211035Z 17009KT 24/18 A2995 RMK A01 T02380182  RH  071%=      5-min Rain = 0
KME1 211036Z 18010KT 24/18 A2995 RMK A01 T02380182  RH  071%=      5-min Rain = 0
KME1 211037Z 18009KT 24/18 A2995 RMK A01 T02380183  RH  071%=      5-min Rain = 0
KME1 211038Z 18009KT 24/18 A2995 RMK A01 T02370183  RH  071%=      5-min Rain = 0
KME1 211039Z 18011KT 24/18 A2995 RMK A01 T02370183  RH  072%=      5-min Rain = 0
KME1 211040Z 18010KT 24/18 A2995 RMK A01 T02360182  RH  072%=      5-min Rain = 0
KME1 211041Z 17010KT 24/18 A2995 RMK A01 T02370182  RH  072%=      5-min Rain = 0
KME1 211042Z 17010KT 24/18 A2995 RMK A01 T02360182  RH  072%=      5-min Rain = 0
KME1 211043Z 17009KT 24/18 A2995 RMK A01 T02360182  RH  072%=      5-min Rain = 0
KME1 211044Z 18010KT 24/18 A2995 RMK A01 T02360183  RH  072%=      5-min Rain = 0
KME1 211045Z 18010KT 24/18 A2995 RMK A01 T02350183  RH  072%=      5-min Rain = 0
KME1 211046Z 17011KT 24/18 A2995 RMK A01 T02350183  RH  072%=      5-min Rain = 0
KME1 211047Z 17010KT 24/18 A2995 RMK A01 T02350183  RH  072%=      5-min Rain = 0
KME1 211048Z 17011G16KT 24/18 A2995 RMK A01 T02350183  RH  073%=      5-min Rain = 0
KME1 211049Z 18011KT 24/18 A2995 RMK A01 T02350183  RH  073%=      5-min Rain = 0
KME1 211050Z 17011G17KT 24/18 A2995 RMK A01 T02350183  RH  073%=      5-min Rain = 0
KME1 211051Z 18010KT 24/18 A2995 RMK A01 T02350184  RH  073%=      5-min Rain = 0
KME1 211052Z 18010KT 24/18 A2995 RMK A01 T02350184  RH  073%=      5-min Rain = 0
KME1 211053Z 18010KT 24/18 A2995 RMK A01 T02350184  RH  073%=      5-min Rain = 0
KME1 211054Z 18009KT 24/18 A2995 RMK A01 T02350184  RH  073%=      5-min Rain = 0
KME1 211055Z 17009KT 23/18 A2995 RMK A01 T02340184  RH  073%=      5-min Rain = 0
KME1 211056Z 18011KT 23/18 A2995 RMK A01 T02340184  RH  073%=      5-min Rain = 0
KME1 211057Z 18012KT 23/18 A2995 RMK A01 T02340183  RH  073%=      5-min Rain = 0
KME1 211058Z 18009KT 23/18 A2995 RMK A01 T02340183  RH  073%=      5-min Rain = 0
KME1 211059Z 18009KT 23/18 A2995 RMK A01 T02340182  RH  073%=      5-min Rain = 0
KME1 211100Z 18010KT 23/18 A2995 RMK A01 T02340182  RH  073%=      5-min Rain = 0
KME1 211101Z 18010KT 23/18 A2995 RMK A01 T02340182  RH  073%=      5-min Rain = 0
KME1 211102Z 18009KT 23/18 A2995 RMK A01 T02340182  RH  073%=      5-min Rain = 0
KME1 211103Z 18010KT 23/18 A2995 RMK A01 T02340182  RH  073%=      5-min Rain = 0
KME1 211104Z 18009KT 23/18 A2995 RMK A01 T02340182  RH  073%=      5-min Rain = 0
KME1 211105Z 18010KT 23/18 A2995 RMK A01 T02340182  RH  073%=      5-min Rain = 0
KME1 211106Z 18012KT 23/18 A2995 RMK A01 T02330181  RH  073%=      5-min Rain = 0
KME1 211107Z 18012KT 23/18 A2995 RMK A01 T02330181  RH  072%=      5-min Rain = 0
KME1 211108Z 17012KT 23/18 A2995 RMK A01 T02340180  RH  072%=      5-min Rain = 0
KME1 211109Z 17010KT 24/18 A2995 RMK A01 T02350180  RH  071%=      5-min Rain = 0
KME1 211110Z 17010KT 24/18 A2995 RMK A01 T02350181  RH  071%=      5-min Rain = 0
KME1 211111Z 18012KT 24/18 A2995 RMK A01 T02350180  RH  071%=      5-min Rain = 0
KME1 211112Z 18010KT 23/18 A2996 RMK A01 T02340180  RH  071%=      5-min Rain = 0
KME1 211113Z 18009KT 23/18 A2996 RMK A01 T02340180  RH  071%=      5-min Rain = 0
KME1 211114Z 17010KT 23/18 A2996 RMK A01 T02340179  RH  071%=      5-min Rain = 0
KME1 211115Z 17010KT 23/18 A2996 RMK A01 T02340179  RH  071%=      5-min Rain = 0
KME1 211116Z 18007KT 23/18 A2996 RMK A01 T02340179  RH  071%=      5-min Rain = 0
KME1 211117Z 18009KT 23/18 A2996 RMK A01 T02330179  RH  072%=      5-min Rain = 0
KME1 211118Z 17008KT 23/18 A2996 RMK A01 T02330179  RH  072%=      5-min Rain = 0
KME1 211119Z 17008KT 23/18 A2996 RMK A01 T02320179  RH  072%=      5-min Rain = 0
KME1 211120Z 18008KT 23/18 A2996 RMK A01 T02320179  RH  072%=      5-min Rain = 0
KME1 211121Z 17009KT 23/18 A2996 RMK A01 T02310179  RH  072%=      5-min Rain = 0
KME1 211122Z 17008KT 23/18 A2996 RMK A01 T02310179  RH  072%=      5-min Rain = 0
KME1 211123Z 17007KT 23/18 A2996 RMK A01 T02310179  RH  073%=      5-min Rain = 0
KME1 211124Z 17008KT 23/18 A2996 RMK A01 T02300179  RH  073%=      5-min Rain = 0
KME1 211125Z 17008KT 23/18 A2996 RMK A01 T02290179  RH  073%=      5-min Rain = 0
KME1 211126Z 17010KT 23/18 A2996 RMK A01 T02290179  RH  073%=      5-min Rain = 0
KME1 211127Z 17009KT 23/18 A2996 RMK A01 T02290179  RH  074%=      5-min Rain = 0
KME1 211128Z 17007KT 23/18 A2996 RMK A01 T02290180  RH  074%=      5-min Rain = 0
KME1 211129Z 17008KT 23/18 A2996 RMK A01 T02290179  RH  074%=      5-min Rain = 0
KME1 211130Z 17009KT 23/18 A2996 RMK A01 T02280179  RH  074%=      5-min Rain = 0
KME1 211131Z 17007KT 23/18 A2996 RMK A01 T02280180  RH  074%=      5-min Rain = 0
KME1 211132Z 17007KT 23/18 A2996 RMK A01 T02280180  RH  074%=      5-min Rain = 0
KME1 211133Z 17008KT 23/18 A2996 RMK A01 T02270180  RH  074%=      5-min Rain = 0
KME1 211134Z 17009KT 23/18 A2996 RMK A01 T02270180  RH  075%=      5-min Rain = 0
KME1 211135Z 18008KT 23/18 A2996 RMK A01 T02270180  RH  075%=      5-min Rain = 0
KME1 211136Z 18008KT 23/18 A2996 RMK A01 T02260180  RH  075%=      5-min Rain = 0
KME1 211137Z 18009KT 23/18 A2996 RMK A01 T02270180  RH  075%=      5-min Rain = 0
KME1 211138Z 18008KT 23/18 A2996 RMK A01 T02260179  RH  075%=      5-min Rain = 0
KME1 211139Z 17007KT 23/18 A2996 RMK A01 T02260179  RH  075%=      5-min Rain = 0
KME1 211140Z 17008KT 23/18 A2996 RMK A01 T02260179  RH  075%=      5-min Rain = 0
KME1 211141Z 18007KT 23/18 A2996 RMK A01 T02270180  RH  075%=      5-min Rain = 0
KME1 211142Z 17008KT 23/18 A2996 RMK A01 T02260179  RH  075%=      5-min Rain = 0
KME1 211143Z 18008KT 23/18 A2996 RMK A01 T02250179  RH  075%=      5-min Rain = 0
KME1 211144Z 18008KT 23/18 A2996 RMK A01 T02250179  RH  075%=      5-min Rain = 0
KME1 211145Z 18008KT 23/18 A2996 RMK A01 T02250179  RH  075%=      5-min Rain = 0
KME1 211146Z 18009KT 22/18 A2996 RMK A01 T02240179  RH  075%=      5-min Rain = 0
KME1 211147Z 17008KT 22/18 A2996 RMK A01 T02240179  RH  075%=      5-min Rain = 0
KME1 211148Z 18009KT 22/18 A2996 RMK A01 T02240178  RH  075%=      5-min Rain = 0
KME1 211149Z 17009KT 22/18 A2996 RMK A01 T02240178  RH  075%=      5-min Rain = 0
KME1 211150Z 17008KT 22/18 A2996 RMK A01 T02240178  RH  075%=      5-min Rain = 0
KME1 211151Z 18008KT 22/18 A2996 RMK A01 T02240178  RH  075%=      5-min Rain = 0
KME1 211152Z 17010KT 22/18 A2996 RMK A01 T02230177  RH  075%=      5-min Rain = 0
KME1 211153Z 17009KT 22/18 A2996 RMK A01 T02240177  RH  075%=      5-min Rain = 0
KME1 211154Z 17009KT 22/18 A2996 RMK A01 T02240177  RH  075%=      5-min Rain = 0
KME1 211155Z 17009KT 22/18 A2996 RMK A01 T02230177  RH  075%=      5-min Rain = 0
KME1 211156Z 17007KT 22/18 A2996 RMK A01 T02230177  RH  075%=      5-min Rain = 0
KME1 211157Z 18008KT 22/18 A2996 RMK A01 T02220177  RH  075%=      5-min Rain = 0
KME1 211158Z 18009KT 22/18 A2996 RMK A01 T02220176  RH  075%=      5-min Rain = 0
KME1 211159Z 18008KT 22/18 A2996 RMK A01 T02220176  RH  075%=      5-min Rain = 0
KME1 211200Z 18008KT 22/18 A2996 RMK A01 T02220176  RH  075%=      5-min Rain = 0
KME1 211201Z 18009KT 22/18 A2996 RMK A01 T02220176  RH  075%=      5-min Rain = 0
KME1 211202Z 18007KT 22/18 A2996 RMK A01 T02220176  RH  075%=      5-min Rain = 0
KME1 211203Z 18009KT 22/18 A2996 RMK A01 T02220176  RH  075%=      5-min Rain = 0
KME1 211204Z 18009KT 22/18 A2996 RMK A01 T02220176  RH  075%=      5-min Rain = 0
KME1 211205Z 18007KT 22/18 A2996 RMK A01 T02220176  RH  075%=      5-min Rain = 0
KME1 211206Z 18008KT 22/18 A2996 RMK A01 T02220175  RH  075%=      5-min Rain = 0
KME1 211207Z 18008KT 22/18 A2996 RMK A01 T02230175  RH  075%=      5-min Rain = 0
KME1 211208Z 18007KT 22/18 A2997 RMK A01 T02230175  RH  074%=      5-min Rain = 0
KME1 211209Z 18008KT 22/18 A2997 RMK A01 T02230175  RH  074%=      5-min Rain = 0
KME1 211210Z 18008KT 22/18 A2997 RMK A01 T02230175  RH  074%=      5-min Rain = 0
KME1 211211Z 17008KT 22/18 A2997 RMK A01 T02230175  RH  074%=      5-min Rain = 0
KME1 211212Z 18008KT 22/18 A2997 RMK A01 T02230175  RH  074%=      5-min Rain = 0
KME1 211213Z 18008KT 22/18 A2997 RMK A01 T02220175  RH  074%=      5-min Rain = 0
KME1 211214Z 18007KT 22/18 A2997 RMK A01 T02220175  RH  074%=      5-min Rain = 0
KME1 211215Z 18008KT 22/18 A2997 RMK A01 T02220175  RH  074%=      5-min Rain = 0
KME1 211216Z 18007KT 22/18 A2997 RMK A01 T02220175  RH  074%=      5-min Rain = 0
KME1 211217Z 18006KT 22/18 A2997 RMK A01 T02220175  RH  075%=      5-min Rain = 0
KME1 211218Z 18007KT 22/17 A2997 RMK A01 T02210174  RH  075%=      5-min Rain = 0
KME1 211219Z 17007KT 22/17 A2997 RMK A01 T02210174  RH  074%=      5-min Rain = 0
KME1 211220Z 18007KT 22/17 A2997 RMK A01 T02210174  RH  074%=      5-min Rain = 0
KME1 211221Z 18009KT 22/17 A2997 RMK A01 T02220174  RH  074%=      5-min Rain = 0
KME1 211222Z 18008KT 22/17 A2997 RMK A01 T02220174  RH  074%=      5-min Rain = 0
KME1 211223Z 18007KT 22/17 A2997 RMK A01 T02230174  RH  074%=      5-min Rain = 0
KME1 211224Z 18006KT 22/17 A2997 RMK A01 T02230174  RH  074%=      5-min Rain = 0
KME1 211225Z 18007KT 22/17 A2997 RMK A01 T02230174  RH  074%=      5-min Rain = 0
KME1 211226Z 18007KT 22/17 A2997 RMK A01 T02230174  RH  074%=      5-min Rain = 0
KME1 211227Z 18007KT 22/17 A2997 RMK A01 T02230174  RH  074%=      5-min Rain = 0
KME1 211228Z 18007KT 22/17 A2997 RMK A01 T02230174  RH  074%=      5-min Rain = 0
KME1 211229Z 17008KT 22/17 A2997 RMK A01 T02230173  RH  073%=      5-min Rain = 0
KME1 211230Z 18007KT 22/17 A2998 RMK A01 T02230173  RH  073%=      5-min Rain = 0
KME1 211231Z 18007KT 22/17 A2998 RMK A01 T02230173  RH  073%=      5-min Rain = 0
KME1 211232Z 18006KT 22/17 A2998 RMK A01 T02230173  RH  073%=      5-min Rain = 0
KME1 211233Z 17006KT 22/17 A2998 RMK A01 T02230173  RH  073%=      5-min Rain = 0
KME1 211234Z 17007KT 22/17 A2998 RMK A01 T02230174  RH  073%=      5-min Rain = 0
KME1 211235Z 18007KT 22/17 A2998 RMK A01 T02230173  RH  073%=      5-min Rain = 0
KME1 211236Z 18007KT 22/17 A2998 RMK A01 T02230174  RH  073%=      5-min Rain = 0
KME1 211237Z 18006KT 22/17 A2998 RMK A01 T02230173  RH  073%=      5-min Rain = 0
KME1 211238Z 17007KT 22/17 A2998 RMK A01 T02230173  RH  073%=      5-min Rain = 0
KME1 211239Z 18007KT 22/17 A2998 RMK A01 T02240174  RH  073%=      5-min Rain = 0
KME1 211240Z 18006KT 22/17 A2998 RMK A01 T02240174  RH  073%=      5-min Rain = 0
KME1 211241Z 18007KT 22/17 A2998 RMK A01 T02240174  RH  073%=      5-min Rain = 0
KME1 211242Z 17007KT 22/17 A2998 RMK A01 T02240174  RH  073%=      5-min Rain = 0
KME1 211243Z 18008KT 22/17 A2998 RMK A01 T02240173  RH  073%=      5-min Rain = 0
KME1 211244Z 18006KT 22/17 A2998 RMK A01 T02240173  RH  073%=      5-min Rain = 0
KME1 211245Z 18007KT 23/17 A2998 RMK A01 T02250174  RH  073%=      5-min Rain = 0
KME1 211246Z 18008KT 23/17 A2998 RMK A01 T02250174  RH  073%=      5-min Rain = 0
KME1 211247Z 17009KT 23/17 A2998 RMK A01 T02250173  RH  072%=      5-min Rain = 0
KME1 211248Z 18009KT 23/17 A2998 RMK A01 T02260173  RH  072%=      5-min Rain = 0
KME1 211249Z 18007KT 23/17 A2998 RMK A01 T02260173  RH  072%=      5-min Rain = 0
KME1 211250Z 18008KT 23/17 A2998 RMK A01 T02270174  RH  072%=      5-min Rain = 0
KME1 211251Z 18009KT 23/17 A2998 RMK A01 T02270173  RH  072%=      5-min Rain = 0
KME1 211252Z 18008KT 23/17 A2998 RMK A01 T02270173  RH  072%=      5-min Rain = 0
KME1 211253Z 18007KT 23/17 A2998 RMK A01 T02280174  RH  072%=      5-min Rain = 0
KME1 211254Z 18008KT 23/17 A2998 RMK A01 T02280174  RH  071%=      5-min Rain = 0
KME1 211255Z 17007KT 23/17 A2998 RMK A01 T02280173  RH  071%=      5-min Rain = 0
KME1 211256Z 17008G13KT 23/17 A2998 RMK A01 T02290174  RH  071%=      5-min Rain = 0
KME1 211257Z 18007KT 23/18 A2998 RMK A01 T02290175  RH  071%=      5-min Rain = 0
KME1 211258Z 18006KT 23/17 A2998 RMK A01 T02290174  RH  071%=      5-min Rain = 0
KME1 211259Z 18007KT 23/18 A2998 RMK A01 T02300175  RH  071%=      5-min Rain = 0
KME1 211300Z 18005KT 23/18 A2998 RMK A01 T02300175  RH  071%=      5-min Rain = 0
KME1 211301Z 18006KT 23/18 A2998 RMK A01 T02310175  RH  071%=      5-min Rain = 0
KME1 211302Z 18007KT 23/18 A2998 RMK A01 T02310175  RH  071%=      5-min Rain = 0
KME1 211303Z 18007KT 23/17 A2998 RMK A01 T02310174  RH  070%=      5-min Rain = 0
KME1 211304Z 17006KT 23/18 A2998 RMK A01 T02320175  RH  070%=      5-min Rain = 0
KME1 211305Z 18008KT 23/18 A2998 RMK A01 T02320175  RH  070%=      5-min Rain = 0
KME1 211306Z 18006KT 23/17 A2998 RMK A01 T02320174  RH  070%=      5-min Rain = 0
KME1 211307Z 18006KT 23/18 A2998 RMK A01 T02320175  RH  070%=      5-min Rain = 0
KME1 211308Z 18007KT 23/18 A2998 RMK A01 T02330175  RH  070%=      5-min Rain = 0
KME1 211309Z 18006KT 23/18 A2998 RMK A01 T02330175  RH  070%=      5-min Rain = 0
KME1 211310Z 18007KT 23/18 A2998 RMK A01 T02340176  RH  070%=      5-min Rain = 0
KME1 211311Z 18011KT 23/17 A2998 RMK A01 T02340174  RH  069%=      5-min Rain = 0
KME1 211312Z 17008KT 24/17 A2998 RMK A01 T02350174  RH  069%=      5-min Rain = 0
KME1 211313Z 18009KT 24/18 A2998 RMK A01 T02350175  RH  069%=      5-min Rain = 0
KME1 211314Z 18009G14KT 24/18 A2998 RMK A01 T02360175  RH  069%=      5-min Rain = 0
KME1 211315Z 18009KT 24/18 A2998 RMK A01 T02360175  RH  068%=      5-min Rain = 0
KME1 211316Z 17011KT 24/17 A2998 RMK A01 T02370174  RH  068%=      5-min Rain = 0
KME1 211317Z 17011KT 24/17 A2998 RMK A01 T02370174  RH  068%=      5-min Rain = 0
KME1 211318Z 18009KT 24/17 A2998 RMK A01 T02380174  RH  068%=      5-min Rain = 0
KME1 211319Z 17011KT 24/17 A2998 RMK A01 T02380174  RH  068%=      5-min Rain = 0
KME1 211320Z 17009KT 24/17 A2998 RMK A01 T02380174  RH  068%=      5-min Rain = 0
KME1 211321Z 18007KT 24/18 A2998 RMK A01 T02380175  RH  068%=      5-min Rain = 0
KME1 211322Z 18010G15KT 24/18 A2998 RMK A01 T02390176  RH  068%=      5-min Rain = 0
KME1 211323Z 19010KT 24/18 A2999 RMK A01 T02400175  RH  067%=      5-min Rain = 0
KME1 211324Z 18010KT 24/18 A2999 RMK A01 T02400175  RH  067%=      5-min Rain = 0
KME1 211325Z 18011KT 24/17 A2999 RMK A01 T02400174  RH  067%=      5-min Rain = 0
KME1 211326Z 18009KT 24/17 A2999 RMK A01 T02400174  RH  067%=      5-min Rain = 0
KME1 211327Z 18009KT 24/18 A2999 RMK A01 T02410176  RH  067%=      5-min Rain = 0
KME1 211328Z 18012KT 24/18 A2999 RMK A01 T02410175  RH  066%=      5-min Rain = 0
KME1 211329Z 18011KT 24/18 A2999 RMK A01 T02420175  RH  066%=      5-min Rain = 0
KME1 211330Z 17012KT 24/18 A2999 RMK A01 T02420175  RH  066%=      5-min Rain = 0
KME1 211331Z 17009KT 24/18 A2999 RMK A01 T02420175  RH  066%=      5-min Rain = 0
KME1 211332Z 17010KT 24/18 A2999 RMK A01 T02430176  RH  066%=      5-min Rain = 0
KME1 211333Z 18009KT 24/18 A2999 RMK A01 T02430176  RH  066%=      5-min Rain = 0
KME1 211334Z 18009KT 24/18 A2999 RMK A01 T02440176  RH  066%=      5-min Rain = 0
KME1 211335Z 16010KT 24/18 A2999 RMK A01 T02440176  RH  066%=      5-min Rain = 0
KME1 211336Z 18008KT 25/18 A2999 RMK A01 T02450176  RH  066%=      5-min Rain = 0
KME1 211337Z 17007KT 25/18 A2999 RMK A01 T02450177  RH  066%=      5-min Rain = 0
KME1 211338Z 18006KT 25/18 A2999 RMK A01 T02460178  RH  066%=      5-min Rain = 0
KME1 211339Z 18008KT 25/18 A2999 RMK A01 T02460178  RH  066%=      5-min Rain = 0
KME1 211340Z 19008KT 25/18 A2999 RMK A01 T02470178  RH  065%=      5-min Rain = 0
KME1 211341Z 18012G17KT 25/18 A2999 RMK A01 T02470177  RH  065%=      5-min Rain = 0
KME1 211342Z 19011KT 25/18 A2999 RMK A01 T02470176  RH  064%=      5-min Rain = 0
KME1 211343Z 18009KT 25/18 A2999 RMK A01 T02470177  RH  065%=      5-min Rain = 0
KME1 211344Z 17006KT 25/18 A2999 RMK A01 T02470178  RH  065%=      5-min Rain = 0
KME1 211345Z 18008KT 25/18 A2999 RMK A01 T02480179  RH  066%=      5-min Rain = 0
KME1 211346Z 17006KT 25/18 A2999 RMK A01 T02490180  RH  065%=      5-min Rain = 0
KME1 211347Z 17007KT 25/18 A2999 RMK A01 T02500180  RH  065%=      5-min Rain = 0
KME1 211348Z 18007KT 25/18 A2999 RMK A01 T02510180  RH  065%=      5-min Rain = 0
KME1 211349Z 17007KT 25/18 A2999 RMK A01 T02520180  RH  065%=      5-min Rain = 0
KME1 211350Z 18009KT 25/18 A2999 RMK A01 T02520179  RH  064%=      5-min Rain = 0
KME1 211351Z 18010KT 25/18 A2999 RMK A01 T02520178  RH  064%=      5-min Rain = 0
KME1 211352Z 18009KT 25/18 A2999 RMK A01 T02520179  RH  064%=      5-min Rain = 0
KME1 211353Z 18010KT 25/18 A2999 RMK A01 T02520179  RH  064%=      5-min Rain = 0
KME1 211354Z 17007KT 25/18 A2999 RMK A01 T02520180  RH  064%=      5-min Rain = 0
KME1 211355Z 17006KT 25/18 A2999 RMK A01 T02520180  RH  064%=      5-min Rain = 0
KME1 211356Z 17006KT 25/18 A2999 RMK A01 T02530181  RH  064%=      5-min Rain = 0
KME1 211357Z 17007KT 26/18 A2999 RMK A01 T02550182  RH  064%=      5-min Rain = 0
KME1 211358Z 18011KT 26/18 A2999 RMK A01 T02560181  RH  063%=      5-min Rain = 0
KME1 211359Z 17009KT 26/18 A2999 RMK A01 T02560181  RH  063%=      5-min Rain = 0
KME1 211400Z 17010KT 26/18 A2999 RMK A01 T02560179  RH  062%=      5-min Rain = 0
KME1 211401Z 16009KT 26/18 A2999 RMK A01 T02560179  RH  063%=      5-min Rain = 0
KME1 211402Z 18009KT 26/18 A2999 RMK A01 T02560180  RH  063%=      5-min Rain = 0
KME1 211403Z 17011KT 26/18 A2999 RMK A01 T02560179  RH  062%=      5-min Rain = 0
KME1 211404Z 17009KT 26/18 A2999 RMK A01 T02560180  RH  063%=      5-min Rain = 0
KME1 211405Z 18009KT 26/18 A2999 RMK A01 T02560181  RH  063%=      5-min Rain = 0
KME1 211406Z 18009KT 26/18 A2999 RMK A01 T02570181  RH  063%=      5-min Rain = 0
KME1 211407Z 17009KT 26/18 A2999 RMK A01 T02580181  RH  063%=      5-min Rain = 0
KME1 211408Z 18007KT 26/18 A2999 RMK A01 T02580183  RH  063%=      5-min Rain = 0
KME1 211409Z 18008KT 26/18 A2999 RMK A01 T02600183  RH  062%=      5-min Rain = 0
KME1 211410Z 18007KT 26/18 A2999 RMK A01 T02610182  RH  062%=      5-min Rain = 0
KME1 211411Z 18009KT 26/18 A2999 RMK A01 T02610182  RH  062%=      5-min Rain = 0
KME1 211412Z 18010KT 26/18 A2999 RMK A01 T02610182  RH  062%=      5-min Rain = 0
KME1 211413Z 19010KT 26/18 A2999 RMK A01 T02620181  RH  061%=      5-min Rain = 0
KME1 211414Z 18007KT 26/18 A2999 RMK A01 T02620182  RH  062%=      5-min Rain = 0
KME1 211415Z 18008KT 26/18 A2999 RMK A01 T02620184  RH  062%=      5-min Rain = 0
KME1 211416Z 18009KT 26/18 A2999 RMK A01 T02630183  RH  061%=      5-min Rain = 0
KME1 211417Z 19008KT 26/18 A2999 RMK A01 T02640184  RH  061%=      5-min Rain = 0
KME1 211418Z 19009G14KT 27/18 A2999 RMK A01 T02650184  RH  061%=      5-min Rain = 0
KME1 211419Z 19008KT 27/18 A2999 RMK A01 T02660182  RH  060%=      5-min Rain = 0
KME1 211420Z 17008G15KT 27/19 A2999 RMK A01 T02650185  RH  061%=      5-min Rain = 0
KME1 211421Z 18011KT 27/18 A2999 RMK A01 T02660184  RH  060%=      5-min Rain = 0
KME1 211422Z 17010KT 27/18 A2999 RMK A01 T02660181  RH  060%=      5-min Rain = 0
KME1 211423Z 17010KT 27/18 A2999 RMK A01 T02660184  RH  061%=      5-min Rain = 0
KME1 211424Z 17010KT 27/18 A2999 RMK A01 T02660182  RH  060%=      5-min Rain = 0
KME1 211425Z 18008KT 27/18 A2999 RMK A01 T02660184  RH  060%=      5-min Rain = 0
KME1 211426Z 18008KT 27/18 A2999 RMK A01 T02670183  RH  060%=      5-min Rain = 0
KME1 211427Z 18009KT 27/18 A2999 RMK A01 T02670183  RH  060%=      5-min Rain = 0
KME1 211428Z 18008KT 27/18 A2999 RMK A01 T02670184  RH  060%=      5-min Rain = 0
KME1 211429Z 17010KT 27/18 A30 RMK A01 T02680183  RH  060%=      5-min Rain = 0
KME1 211430Z 17012KT 27/18 A30 RMK A01 T02680182  RH  059%=      5-min Rain = 0
KME1 211431Z 18012KT 27/18 A30 RMK A01 T02690182  RH  059%=      5-min Rain = 0
KME1 211432Z 17010KT 27/18 A30 RMK A01 T02680182  RH  059%=      5-min Rain = 0
KME1 211433Z 16010KT 27/18 A30 RMK A01 T02680184  RH  060%=      5-min Rain = 0
KME1 211434Z 17011KT 27/18 A30 RMK A01 T02690183  RH  059%=      5-min Rain = 0
KME1 211435Z 17012KT 27/18 A30 RMK A01 T02700183  RH  059%=      5-min Rain = 0
KME1 211436Z 18013KT 27/18 A30 RMK A01 T02700181  RH  058%=      5-min Rain = 0
KME1 211437Z 18010KT 27/18 A30 RMK A01 T02700182  RH  058%=      5-min Rain = 0
KME1 211438Z 17008KT 27/19 A30 RMK A01 T02700185  RH  060%=      5-min Rain = 0
KME1 211439Z 17009KT 27/18 A30 RMK A01 T02710184  RH  059%=      5-min Rain = 0
KME1 211440Z 17010KT 27/19 A30 RMK A01 T02730186  RH  059%=      5-min Rain = 0
KME1 211441Z 18009KT 27/19 A30 RMK A01 T02740185  RH  058%=      5-min Rain = 0
KME1 211442Z 19011KT 27/18 A30 RMK A01 T02730184  RH  058%=      5-min Rain = 0
KME1 211443Z 17014KT 27/18 A30 RMK A01 T02730183  RH  058%=      5-min Rain = 0
KME1 211444Z 17012KT 27/18 A30 RMK A01 T02730182  RH  058%=      5-min Rain = 0
KME1 211445Z 19009KT 27/19 A30 RMK A01 T02730185  RH  058%=      5-min Rain = 0
KME1 211446Z 18011KT 28/18 A30 RMK A01 T02750184  RH  058%=      5-min Rain = 0
KME1 211447Z 18011KT 28/18 A30 RMK A01 T02760184  RH  057%=      5-min Rain = 0
KME1 211448Z 18012KT 28/18 A2999 RMK A01 T02760184  RH  057%=      5-min Rain = 0
KME1 211449Z 19013KT 28/18 A2999 RMK A01 T02760182  RH  057%=      5-min Rain = 0
KME1 211450Z 18013KT 28/18 A2999 RMK A01 T02750182  RH  057%=      5-min Rain = 0
KME1 211451Z 18011KT 28/18 A2999 RMK A01 T02750183  RH  057%=      5-min Rain = 0
KME1 211452Z 18010KT 27/18 A2999 RMK A01 T02740183  RH  057%=      5-min Rain = 0
KME1 211453Z 18008KT 28/19 A2999 RMK A01 T02750185  RH  058%=      5-min Rain = 0
KME1 211454Z 19007KT 28/19 A2999 RMK A01 T02770187  RH  058%=      5-min Rain = 0
KME1 211455Z 17008KT 28/19 A2999 RMK A01 T02790189  RH  058%=      5-min Rain = 0
KME1 211456Z 16010KT 28/19 A2999 RMK A01 T02810185  RH  056%=      5-min Rain = 0
KME1 211457Z 16012KT 28/19 A2999 RMK A01 T02820185  RH  056%=      5-min Rain = 0
KME1 211458Z 17013KT 28/18 A2999 RMK A01 T02820183  RH  055%=      5-min Rain = 0
KME1 211459Z 16012KT 28/18 A2999 RMK A01 T02810183  RH  055%=      5-min Rain = 0
KME1 211500Z 17009KT 28/18 A2999 RMK A01 T02810184  RH  056%=      5-min Rain = 0
KME1 211501Z 18012KT 28/18 A2999 RMK A01 T02810184  RH  056%=      5-min Rain = 0
KME1 211502Z 18010G15KT 28/19 A2999 RMK A01 T02810185  RH  056%=      5-min Rain = 0
KME1 211503Z 19012KT 28/18 A2999 RMK A01 T02810184  RH  056%=      5-min Rain = 0
KME1 211504Z 16011KT 28/19 A2999 RMK A01 T02820185  RH  056%=      5-min Rain = 0
KME1 211505Z 17013G18KT 28/18 A2999 RMK A01 T02820184  RH  055%=      5-min Rain = 0
KME1 211506Z 18013KT 28/18 A2999 RMK A01 T02830182  RH  054%=      5-min Rain = 0
KME1 211507Z 18012KT 28/18 A2999 RMK A01 T02830182  RH  054%=      5-min Rain = 0
KME1 211508Z 18012KT 28/18 A2999 RMK A01 T02830183  RH  055%=      5-min Rain = 0
KME1 211509Z 18012KT 28/18 A2999 RMK A01 T02830182  RH  054%=      5-min Rain = 0
KME1 211510Z 18011G17KT 28/18 A2999 RMK A01 T02830184  RH  055%=      5-min Rain = 0
KME1 211511Z 18011KT 28/18 A2999 RMK A01 T02840184  RH  055%=      5-min Rain = 0
KME1 211512Z 18011KT 28/19 A2999 RMK A01 T02840185  RH  055%=      5-min Rain = 0
KME1 211513Z 18011KT 29/18 A2999 RMK A01 T02850184  RH  054%=      5-min Rain = 0
KME1 211514Z 19009KT 29/19 A2999 RMK A01 T02860185  RH  054%=      5-min Rain = 0
KME1 211515Z 17009G14KT 29/19 A2999 RMK A01 T02870186  RH  054%=      5-min Rain = 0
KME1 211516Z 18014KT 29/18 A2999 RMK A01 T02880184  RH  054%=      5-min Rain = 0
KME1 211517Z 18012KT 29/18 A2999 RMK A01 T02880183  RH  053%=      5-min Rain = 0
KME1 211518Z 18012KT 29/18 A2999 RMK A01 T02880183  RH  053%=      5-min Rain = 0
KME1 211519Z 17013KT 29/18 A2999 RMK A01 T02880183  RH  053%=      5-min Rain = 0
KME1 211520Z 18012KT 29/18 A2999 RMK A01 T02880183  RH  053%=      5-min Rain = 0
KME1 211521Z 18009KT 29/19 A2999 RMK A01 T02880185  RH  054%=      5-min Rain = 0
KME1 211522Z 18011KT 29/19 A2999 RMK A01 T02880185  RH  054%=      5-min Rain = 0
KME1 211523Z 17008G13KT 29/19 A2999 RMK A01 T02890186  RH  054%=      5-min Rain = 0
KME1 211524Z 16011KT 29/19 A2999 RMK A01 T02910187  RH  053%=      5-min Rain = 0
KME1 211525Z 16011KT 29/18 A2999 RMK A01 T02920184  RH  052%=      5-min Rain = 0
KME1 211526Z 16009KT 29/19 A2999 RMK A01 T02920186  RH  053%=      5-min Rain = 0
KME1 211527Z 17010KT 29/19 A30 RMK A01 T02940188  RH  053%=      5-min Rain = 0
KME1 211528Z 16009KT 30/19 A30 RMK A01 T02950185  RH  051%=      5-min Rain = 0
KME1 211529Z 16011KT 30/19 A30 RMK A01 T02960185  RH  051%=      5-min Rain = 0
KME1 211530Z 16013KT 30/18 A30 RMK A01 T02970183  RH  050%=      5-min Rain = 0
KME1 211531Z 17012G17KT 30/18 A30 RMK A01 T02970183  RH  050%=      5-min Rain = 0
KME1 211532Z 18011KT 30/18 A30 RMK A01 T02970183  RH  050%=      5-min Rain = 0
KME1 211533Z 18011KT 30/18 A30 RMK A01 T02960184  RH  051%=      5-min Rain = 0
KME1 211534Z 18011KT 30/18 A30 RMK A01 T02960183  RH  051%=      5-min Rain = 0
KME1 211535Z 18012KT 30/18 A30 RMK A01 T02960183  RH  051%=      5-min Rain = 0
KME1 211536Z 18011KT 30/19 A30 RMK A01 T02950185  RH  051%=      5-min Rain = 0
KME1 211537Z 18011KT 30/18 A30 RMK A01 T02960183  RH  051%=      5-min Rain = 0
KME1 211538Z 18013KT 30/18 A30 RMK A01 T02950184  RH  051%=      5-min Rain = 0
KME1 211539Z 18010KT 30/18 A30 RMK A01 T02960184  RH  051%=      5-min Rain = 0
KME1 211540Z 19014G19KT 30/18 A30 RMK A01 T02960183  RH  051%=      5-min Rain = 0
KME1 211541Z 18013KT 30/18 A30 RMK A01 T02960180  RH  050%=      5-min Rain = 0
KME1 211542Z 16012G18KT 30/18 A30 RMK A01 T02960183  RH  051%=      5-min Rain = 0
KME1 211543Z 17012KT 30/18 A30 RMK A01 T02980180  RH  049%=      5-min Rain = 0
KME1 211544Z 16012KT 30/18 A30 RMK A01 T02990181  RH  049%=      5-min Rain = 0
KME1 211545Z 17013KT 30/18 A30 RMK A01 T02980180  RH  049%=      5-min Rain = 0
KME1 211546Z 17012KT 30/18 A30 RMK A01 T02980181  RH  049%=      5-min Rain = 0
KME1 211547Z 18009KT 30/18 A30 RMK A01 T02990182  RH  050%=      5-min Rain = 0
KME1 211548Z 18012KT 30/18 A30 RMK A01 T03000183  RH  050%=      5-min Rain = 0
KME1 211549Z 19010KT 30/18 A30 RMK A01 T03010183  RH  049%=      5-min Rain = 0
KME1 211550Z 18010KT 30/19 A30 RMK A01 T03010186  RH  050%=      5-min Rain = 0
KME1 211551Z 19007KT 30/18 A30 RMK A01 T03020184  RH  049%=      5-min Rain = 0
KME1 211552Z 19008KT 30/19 A30 RMK A01 T03020186  RH  050%=      5-min Rain = 0
KME1 211553Z 19013KT 30/19 A30 RMK A01 T03030186  RH  049%=      5-min Rain = 0
KME1 211554Z 17011KT 30/18 A30 RMK A01 T03030183  RH  049%=      5-min Rain = 0
KME1 211555Z 17013KT 30/18 A30 RMK A01 T03020183  RH  049%=      5-min Rain = 0
KME1 211556Z 18011KT 30/18 A30 RMK A01 T03010183  RH  049%=      5-min Rain = 0
KME1 211557Z 17010G15KT 30/18 A30 RMK A01 T03010184  RH  049%=      5-min Rain = 0
KME1 211558Z 15012KT 30/18 A30 RMK A01 T03030183  RH  049%=      5-min Rain = 0
KME1 211559Z 16010KT 30/18 A30 RMK A01 T03030184  RH  049%=      5-min Rain = 0
KME1 211600Z 18009KT 31/19 A30 RMK A01 T03050185  RH  049%=      5-min Rain = 0
KME1 211601Z 17011G16KT 31/19 A30 RMK A01 T03060186  RH  049%=      5-min Rain = 0
KME1 211602Z 17008KT 31/18 A30 RMK A01 T03070182  RH  047%=      5-min Rain = 0
KME1 211603Z 18011KT 31/18 A30 RMK A01 T03070183  RH  048%=      5-min Rain = 0
KME1 211604Z 16013KT 31/18 A30 RMK A01 T03080180  RH  047%=      5-min Rain = 0
KME1 211605Z 16009KT 31/18 A30 RMK A01 T03080181  RH  047%=      5-min Rain = 0
KME1 211606Z 16012KT 31/18 A30 RMK A01 T03090181  RH  046%=      5-min Rain = 0
KME1 211607Z 16012KT 31/18 A30 RMK A01 T03080181  RH  047%=      5-min Rain = 0
KME1 211608Z 17011KT 31/18 A30 RMK A01 T03070182  RH  047%=      5-min Rain = 0
KME1 211609Z 18007KT 31/18 A30 RMK A01 T03070183  RH  048%=      5-min Rain = 0
KME1 211610Z 20007KT 31/18 A30 RMK A01 T03070182  RH  047%=      5-min Rain = 0
KME1 211611Z 17006KT 31/19 A30 RMK A01 T03070186  RH  049%=      5-min Rain = 0
KME1 211612Z 16010KT 31/19 A30 RMK A01 T03080187  RH  049%=      5-min Rain = 0
KME1 211613Z 16012KT 31/18 A30 RMK A01 T03100180  RH  046%=      5-min Rain = 0
KME1 211614Z 18012KT 31/18 A30 RMK A01 T03100179  RH  046%=      5-min Rain = 0
KME1 211615Z 17008KT 31/18 A30 RMK A01 T03090181  RH  046%=      5-min Rain = 0
KME1 211616Z 18013G18KT 31/18 A30 RMK A01 T03090183  RH  047%=      5-min Rain = 0
KME1 211617Z 17013KT 31/18 A30 RMK A01 T03100179  RH  045%=      5-min Rain = 0
KME1 211618Z 17011KT 31/18 A30 RMK A01 T03100179  RH  046%=      5-min Rain = 0
KME1 211619Z 18010G15KT 31/18 A30 RMK A01 T03090182  RH  047%=      5-min Rain = 0
KME1 211620Z 19011KT 31/18 A30 RMK A01 T03100181  RH  046%=      5-min Rain = 0
KME1 211621Z 17014KT 31/18 A30 RMK A01 T03110179  RH  045%=      5-min Rain = 0
KME1 211622Z 17012KT 31/18 A30 RMK A01 T03110177  RH  045%=      5-min Rain = 0
KME1 211623Z 17010KT 31/18 A30 RMK A01 T03110177  RH  045%=      5-min Rain = 0
KME1 211624Z 18008KT 31/18 A30 RMK A01 T03100181  RH  046%=      5-min Rain = 0
KME1 211625Z 19009KT 31/18 A30 RMK A01 T03130182  RH  046%=      5-min Rain = 0
KME1 211626Z 18012KT 32/18 A30 RMK A01 T03150179  RH  044%=      5-min Rain = 0
KME1 211627Z 18013KT 32/18 A30 RMK A01 T03150175  RH  043%=      5-min Rain = 0
KME1 211628Z 18012KT 31/18 A30 RMK A01 T03130176  RH  044%=      5-min Rain = 0
KME1 211629Z 17012KT 31/18 A30 RMK A01 T03120179  RH  045%=      5-min Rain = 0
KME1 211630Z 18013KT 31/18 A30 RMK A01 T03130177  RH  044%=      5-min Rain = 0
KME1 211631Z 18011KT 31/18 A30 RMK A01 T03130179  RH  045%=      5-min Rain = 0
KME1 211632Z 18009KT 31/18 A30 RMK A01 T03120180  RH  045%=      5-min Rain = 0
KME1 211633Z 18014KT 31/18 A30 RMK A01 T03120179  RH  045%=      5-min Rain = 0
KME1 211634Z 17011KT 31/18 A30 RMK A01 T03120177  RH  044%=      5-min Rain = 0
KME1 211635Z 16010KT 31/18 A30 RMK A01 T03120178  RH  045%=      5-min Rain = 0
KME1 211636Z 15009KT 31/18 A30 RMK A01 T03120177  RH  044%=      5-min Rain = 0
KME1 211637Z 15011KT 31/18 A30 RMK A01 T03140180  RH  045%=      5-min Rain = 0
KME1 211638Z 15014KT 32/18 A30 RMK A01 T03160181  RH  044%=      5-min Rain = 0
KME1 211639Z 17014KT 32/18 A30 RMK A01 T03170180  RH  044%=      5-min Rain = 0
KME1 211640Z 16012KT 32/18 A30 RMK A01 T03170177  RH  043%=      5-min Rain = 0
KME1 211641Z 17013KT 32/18 A30 RMK A01 T03160179  RH  044%=      5-min Rain = 0
KME1 211642Z 16010KT 32/18 A30 RMK A01 T03170180  RH  044%=      5-min Rain = 0
KME1 211643Z 15010KT 32/18 A30 RMK A01 T03170179  RH  044%=      5-min Rain = 0
KME1 211644Z 16011KT 32/18 A30 RMK A01 T03180179  RH  044%=      5-min Rain = 0
KME1 211645Z 19013KT 32/18 A30 RMK A01 T03180177  RH  043%=      5-min Rain = 0
KME1 211646Z 18012KT 32/18 A30 RMK A01 T03180178  RH  043%=      5-min Rain = 0
KME1 211647Z 18011KT 32/18 A30 RMK A01 T03180179  RH  044%=      5-min Rain = 0
KME1 211648Z 17009KT 32/18 A30 RMK A01 T03170179  RH  044%=      5-min Rain = 0
KME1 211649Z 18010KT 32/18 A30 RMK A01 T03170179  RH  044%=      5-min Rain = 0
KME1 211650Z 18010KT 32/18 A30 RMK A01 T03190177  RH  043%=      5-min Rain = 0
KME1 211651Z 19008KT 32/18 A30 RMK A01 T03190177  RH  043%=      5-min Rain = 0
KME1 211652Z 18010KT 32/18 A30 RMK A01 T03190176  RH  043%=      5-min Rain = 0
KME1 211653Z 18012KT 32/18 A30 RMK A01 T03180178  RH  043%=      5-min Rain = 0
KME1 211654Z 18011KT 32/18 A30 RMK A01 T03190180  RH  044%=      5-min Rain = 0
KME1 211655Z 17010KT 32/18 A30 RMK A01 T03190183  RH  045%=      5-min Rain = 0
KME1 211656Z 17008KT 32/18 A30 RMK A01 T03200180  RH  043%=      5-min Rain = 0
KME1 211657Z 18009KT 32/18 A30 RMK A01 T03190179  RH  043%=      5-min Rain = 0
KME1 211658Z 18010KT 32/18 A3001 RMK A01 T03200176  RH  042%=      5-min Rain = 0
KME1 211659Z 18011KT 32/18 A3001 RMK A01 T03220175  RH  042%=      5-min Rain = 0
KME1 211700Z 19011KT 32/18 A3001 RMK A01 T03230175  RH  041%=      5-min Rain = 0
KME1 211701Z 20010KT 32/17 A3001 RMK A01 T03230174  RH  041%=      5-min Rain = 0
KME1 211702Z 19009KT 32/18 A3001 RMK A01 T03230176  RH  042%=      5-min Rain = 0
KME1 211703Z 19008KT 32/18 A3001 RMK A01 T03230175  RH  041%=      5-min Rain = 0
KME1 211704Z 18007KT 32/18 A3001 RMK A01 T03220177  RH  042%=      5-min Rain = 0
KME1 211705Z 16010KT 32/18 A3001 RMK A01 T03240178  RH  042%=      5-min Rain = 0
KME1 211706Z 17010KT 33/17 A3001 RMK A01 T03250172  RH  040%=      5-min Rain = 0
KME1 211707Z 17009KT 33/17 A3001 RMK A01 T03250171  RH  040%=      5-min Rain = 0
KME1 211708Z 17009KT 33/17 A3001 RMK A01 T03270171  RH  039%=      5-min Rain = 0
KME1 211709Z 15008KT 33/17 A3001 RMK A01 T03280171  RH  039%=      5-min Rain = 0
KME1 211710Z 15006KT 33/18 A3001 RMK A01 T03270175  RH  040%=      5-min Rain = 0
KME1 211711Z 17008KT 33/18 A3001 RMK A01 T03270178  RH  041%=      5-min Rain = 0
KME1 211712Z 17008KT 33/18 A3001 RMK A01 T03280176  RH  040%=      5-min Rain = 0
KME1 211713Z 15008KT 33/17 A3001 RMK A01 T03280173  RH  040%=      5-min Rain = 0
KME1 211714Z 16008KT 33/17 A3001 RMK A01 T03280174  RH  040%=      5-min Rain = 0
KME1 211715Z 16010KT 33/18 A3001 RMK A01 T03290176  RH  040%=      5-min Rain = 0
KME1 211716Z 18008G13KT 33/17 A3001 RMK A01 T03300173  RH  039%=      5-min Rain = 0
KME1 211717Z 18009KT 33/18 A3001 RMK A01 T03300175  RH  040%=      5-min Rain = 0
KME1 211718Z 17006KT 33/17 A3001 RMK A01 T03300172  RH  039%=      5-min Rain = 0
KME1 211719Z 15007KT 33/17 A3001 RMK A01 T03310173  RH  039%=      5-min Rain = 0
KME1 211720Z 15008KT 33/17 A3001 RMK A01 T03320168  RH  038%=      5-min Rain = 0
KME1 211721Z 19009KT 33/17 A3001 RMK A01 T03330169  RH  038%=      5-min Rain = 0
KME1 211722Z 19010KT 33/17 A3001 RMK A01 T03330171  RH  038%=      5-min Rain = 0
KME1 211723Z 18011KT 33/17 A3001 RMK A01 T03330171  RH  038%=      5-min Rain = 0
KME1 211724Z 19010KT 33/17 A3001 RMK A01 T03320170  RH  038%=      5-min Rain = 0
KME1 211725Z 19009KT 33/17 A3001 RMK A01 T03300167  RH  038%=      5-min Rain = 0
KME1 211726Z 20009KT 33/17 A3001 RMK A01 T03300168  RH  038%=      5-min Rain = 0
KME1 211727Z 20008KT 33/17 A3001 RMK A01 T03300167  RH  038%=      5-min Rain = 0
KME1 211728Z 21008KT 33/17 A30 RMK A01 T03300167  RH  038%=      5-min Rain = 0
KME1 211729Z 18008KT 33/17 A30 RMK A01 T03310169  RH  038%=      5-min Rain = 0
KME1 211730Z 19009KT 33/17 A30 RMK A01 T03320170  RH  038%=      5-min Rain = 0
KME1 211731Z 18005KT 33/17 A30 RMK A01 T03330173  RH  039%=      5-min Rain = 0
KME1 211732Z 19009KT 34/17 A30 RMK A01 T03350174  RH  038%=      5-min Rain = 0
KME1 211733Z 19010KT 34/17 A30 RMK A01 T03370167  RH  036%=      5-min Rain = 0
KME1 211734Z 19011KT 34/17 A30 RMK A01 T03370167  RH  036%=      5-min Rain = 0
KME1 211735Z 18010KT 34/17 A30 RMK A01 T03380168  RH  036%=      5-min Rain = 0
KME1 211736Z 17009KT 34/17 A30 RMK A01 T03370170  RH  037%=      5-min Rain = 0
KME1 211737Z 16007KT 34/17 A30 RMK A01 T03360174  RH  038%=      5-min Rain = 0
KME1 211738Z 17007KT 34/18 A30 RMK A01 T03370175  RH  038%=      5-min Rain = 0
KME1 211739Z 16004KT 34/18 A30 RMK A01 T03370175  RH  038%=      5-min Rain = 0
KME1 211740Z 15004KT 34/17 A30 RMK A01 T03380174  RH  038%=      5-min Rain = 0
KME1 211741Z 18011KT 34/18 A30 RMK A01 T03380176  RH  038%=      5-min Rain = 0
KME1 211742Z 18009KT 34/17 A30 RMK A01 T03380169  RH  036%=      5-min Rain = 0
KME1 211743Z 16009KT 34/17 A30 RMK A01 T03370169  RH  037%=      5-min Rain = 0
KME1 211744Z 16007KT 34/17 A30 RMK A01 T03360171  RH  037%=      5-min Rain = 0
KME1 211745Z 16008KT 34/17 A30 RMK A01 T03370169  RH  037%=      5-min Rain = 0
KME1 211746Z 18009KT 34/17 A30 RMK A01 T03370173  RH  038%=      5-min Rain = 0
KME1 211747Z 18010KT 34/17 A2999 RMK A01 T03390165  RH  035%=      5-min Rain = 0
KME1 211748Z 19010KT 34/17 A2999 RMK A01 T03390166  RH  036%=      5-min Rain = 0
KME1 211749Z 18010KT 34/16 A2999 RMK A01 T03400164  RH  035%=      5-min Rain = 0
KME1 211750Z 19010KT 34/17 A2999 RMK A01 T03400167  RH  036%=      5-min Rain = 0
KME1 211751Z 19007KT 34/17 A2999 RMK A01 T03400165  RH  035%=      5-min Rain = 0
KME1 211752Z 19007KT 34/16 A2999 RMK A01 T03400163  RH  035%=      5-min Rain = 0
KME1 211753Z 18004KT 34/16 A2999 RMK A01 T03380162  RH  035%=      5-min Rain = 0
KME1 211754Z 14009KT 34/17 A2999 RMK A01 T03370165  RH  036%=      5-min Rain = 0
KME1 211755Z 15008KT 34/16 A2999 RMK A01 T03370163  RH  035%=      5-min Rain = 0
KME1 211756Z 16009KT 34/17 A2999 RMK A01 T03370168  RH  037%=      5-min Rain = 0
KME1 211757Z 18008G13KT 34/17 A2999 RMK A01 T03380172  RH  037%=      5-min Rain = 0
KME1 211758Z 20008KT 34/16 A2999 RMK A01 T03400164  RH  035%=      5-min Rain = 0
KME1 211759Z 18007KT 34/17 A2999 RMK A01 T03400165  RH  035%=      5-min Rain = 0
KME1 211800Z 16006KT 34/17 A2999 RMK A01 T03410167  RH  036%=      5-min Rain = 0
KME1 211801Z 15004KT 34/17 A2999 RMK A01 T03430171  RH  036%=      5-min Rain = 0
KME1 211802Z 15006KT 35/17 A2999 RMK A01 T03460173  RH  036%=      5-min Rain = 0
KME1 211803Z 15007KT 35/17 A2999 RMK A01 T03480172  RH  035%=      5-min Rain = 0
KME1 211804Z 15007KT 35/17 A2999 RMK A01 T03490166  RH  034%=      5-min Rain = 0
KME1 211805Z 14009KT 35/17 A2999 RMK A01 T03490170  RH  035%=      5-min Rain = 0
KME1 211806Z 14009KT 35/17 A2999 RMK A01 T03480169  RH  035%=      5-min Rain = 0
KME1 211807Z 16008KT 35/17 A2999 RMK A01 T03470170  RH  035%=      5-min Rain = 0
KME1 211808Z 17008KT 35/17 A2999 RMK A01 T03470171  RH  035%=      5-min Rain = 0
KME1 211809Z 16011KT 35/16 A2999 RMK A01 T03480163  RH  033%=      5-min Rain = 0
KME1 211810Z 17009KT 35/16 A2999 RMK A01 T03480163  RH  033%=      5-min Rain = 0
KME1 211811Z 17010KT 35/17 A2999 RMK A01 T03470167  RH  034%=      5-min Rain = 0
KME1 211812Z 16008KT 35/17 A2999 RMK A01 T03460169  RH  035%=      5-min Rain = 0
KME1 211813Z 15006KT 35/17 A2999 RMK A01 T03450166  RH  034%=      5-min Rain = 0
KME1 211814Z 12008KT 34/17 A2998 RMK A01 T03440166  RH  035%=      5-min Rain = 0
KME1 211815Z 13006G12KT 34/16 A2998 RMK A01 T03420163  RH  034%=      5-min Rain = 0
KME1 211816Z 15007KT 34/17 A2998 RMK A01 T03410167  RH  035%=      5-min Rain = 0
KME1 211817Z 17010G16KT 34/17 A2998 RMK A01 T03430165  RH  035%=      5-min Rain = 0
KME1 211818Z 18010KT 35/16 A2998 RMK A01 T03450164  RH  034%=      5-min Rain = 0
KME1 211819Z 17012KT 35/16 A2998 RMK A01 T03460163  RH  034%=      5-min Rain = 0
KME1 211820Z 15010KT 35/16 A2998 RMK A01 T03460161  RH  033%=      5-min Rain = 0
KME1 211821Z 16010KT 35/16 A2998 RMK A01 T03460161  RH  033%=      5-min Rain = 0
KME1 211822Z 16011G16KT 35/16 A2998 RMK A01 T03460163  RH  034%=      5-min Rain = 0
KME1 211823Z 18007KT 35/17 A2998 RMK A01 T03470165  RH  034%=      5-min Rain = 0
KME1 211824Z 18009KT 35/16 A2998 RMK A01 T03490161  RH  033%=      5-min Rain = 0
KME1 211825Z 17006KT 35/16 A2998 RMK A01 T03490157  RH  032%=      5-min Rain = 0
KME1 211826Z 18008KT 35/16 A2998 RMK A01 T03490161  RH  033%=      5-min Rain = 0
KME1 211827Z 18011KT 35/16 A2998 RMK A01 T03500157  RH  032%=      5-min Rain = 0
KME1 211828Z 18011KT 35/16 A2998 RMK A01 T03490158  RH  032%=      5-min Rain = 0
KME1 211829Z 17012KT 35/16 A2998 RMK A01 T03490159  RH  032%=      5-min Rain = 0
KME1 211830Z 16014KT 35/16 A2998 RMK A01 T03500160  RH  032%=      5-min Rain = 0
KME1 211831Z 17012KT 35/16 A2998 RMK A01 T03500161  RH  032%=      5-min Rain = 0
KME1 211832Z 15009KT 35/16 A2998 RMK A01 T03500161  RH  032%=      5-min Rain = 0
KME1 211833Z 15009KT 35/16 A2998 RMK A01 T03510158  RH  032%=      5-min Rain = 0
KME1 211834Z 15008KT 35/16 A2998 RMK A01 T03500160  RH  032%=      5-min Rain = 0
KME1 211835Z 16005G10KT 35/16 A2998 RMK A01 T03510163  RH  033%=      5-min Rain = 0
KME1 211836Z 16009KT 35/17 A2998 RMK A01 T03540165  RH  033%=      5-min Rain = 0
KME1 211837Z 16008KT 36/16 A2998 RMK A01 T03550163  RH  032%=      5-min Rain = 0
KME1 211838Z 13009KT 36/16 A2998 RMK A01 T03560159  RH  031%=      5-min Rain = 0
KME1 211839Z 15008KT 35/16 A2998 RMK A01 T03540160  RH  032%=      5-min Rain = 0
KME1 211840Z 16009KT 35/16 A2998 RMK A01 T03520158  RH  031%=      5-min Rain = 0
KME1 211841Z 17010KT 35/16 A2997 RMK A01 T03510160  RH  032%=      5-min Rain = 0
KME1 211842Z 16012KT 35/16 A2997 RMK A01 T03510158  RH  032%=      5-min Rain = 0
KME1 211843Z 15013KT 35/16 A2998 RMK A01 T03510157  RH  031%=      5-min Rain = 0
KME1 211844Z 15011KT 35/16 A2997 RMK A01 T03510159  RH  032%=      5-min Rain = 0
KME1 211845Z 12010KT 35/16 A2997 RMK A01 T03520159  RH  032%=      5-min Rain = 0
KME1 211846Z 17010G16KT 35/16 A2997 RMK A01 T03520161  RH  032%=      5-min Rain = 0
KME1 211847Z 18009G14KT 35/16 A2997 RMK A01 T03520157  RH  031%=      5-min Rain = 0
KME1 211848Z 18007KT 35/16 A2997 RMK A01 T03520158  RH  031%=      5-min Rain = 0
KME1 211849Z 16005KT 35/16 A2997 RMK A01 T03520155  RH  031%=      5-min Rain = 0
KME1 211850Z 15005KT 35/16 A2997 RMK A01 T03500163  RH  033%=      5-min Rain = 0
KME1 211851Z 17010KT 35/16 A2997 RMK A01 T03520161  RH  032%=      5-min Rain = 0
KME1 211852Z 19008KT 35/16 A2997 RMK A01 T03530157  RH  031%=      5-min Rain = 0
KME1 211853Z 19010KT 36/16 A2997 RMK A01 T03550157  RH  031%=      5-min Rain = 0
KME1 211854Z 17010G15KT 36/16 A2997 RMK A01 T03560161  RH  032%=      5-min Rain = 0
KME1 211855Z 17012KT 36/16 A2997 RMK A01 T03570160  RH  031%=      5-min Rain = 0
KME1 211856Z 18007KT 36/17 A2997 RMK A01 T03560165  RH  032%=      5-min Rain = 0
KME1 211857Z 14009KT 36/17 A2997 RMK A01 T03570167  RH  032%=      5-min Rain = 0
KME1 211858Z 13009KT 36/17 A2997 RMK A01 T03580165  RH  032%=      5-min Rain = 0
KME1 211859Z 13009KT 36/16 A2997 RMK A01 T03580163  RH  032%=      5-min Rain = 0
KME1 211900Z 14008KT 36/16 A2997 RMK A01 T03570162  RH  031%=      5-min Rain = 0
KME1 211901Z 15010KT 36/16 A2997 RMK A01 T03580162  RH  031%=      5-min Rain = 0
KME1 211902Z 14011KT 36/16 A2997 RMK A01 T03590159  RH  031%=      5-min Rain = 0
KME1 211903Z 14010KT 36/16 A2997 RMK A01 T03590160  RH  031%=      5-min Rain = 0
KME1 211904Z 14010KT 36/16 A2997 RMK A01 T03590155  RH  030%=      5-min Rain = 0
KME1 211905Z 14007KT 36/15 A2997 RMK A01 T03590150  RH  029%=      5-min Rain = 0
KME1 211906Z 14006KT 36/15 A2997 RMK A01 T03580147  RH  028%=      5-min Rain = 0
KME1 211907Z 14003KT 36/15 A2997 RMK A01 T03570148  RH  029%=      5-min Rain = 0
KME1 211908Z 15006KT 36/15 A2997 RMK A01 T03570154  RH  030%=      5-min Rain = 0
KME1 211909Z 15006KT 36/15 A2997 RMK A01 T03600154  RH  029%=      5-min Rain = 0
KME1 211910Z 14006KT 36/16 A2997 RMK A01 T03600157  RH  030%=      5-min Rain = 0
KME1 211911Z 15008KT 36/16 A2997 RMK A01 T03600156  RH  030%=      5-min Rain = 0
KME1 211912Z 14007KT 36/15 A2997 RMK A01 T03620154  RH  029%=      5-min Rain = 0
KME1 211913Z 12008KT 36/15 A2997 RMK A01 T03620150  RH  028%=      5-min Rain = 0
KME1 211914Z 12008KT 36/15 A2997 RMK A01 T03620148  RH  028%=      5-min Rain = 0
KME1 211915Z 10007KT 36/15 A2997 RMK A01 T03600148  RH  028%=      5-min Rain = 0
KME1 211916Z 12008KT 36/15 A2997 RMK A01 T03610150  RH  029%=      5-min Rain = 0
KME1 211917Z 13006KT 36/15 A2997 RMK A01 T03600149  RH  028%=      5-min Rain = 0
KME1 211918Z 15005KT 36/16 A2997 RMK A01 T03590157  RH  030%=      5-min Rain = 0
KME1 211919Z 13008KT 36/16 A2997 RMK A01 T03620161  RH  030%=      5-min Rain = 0
KME1 211920Z 16007KT 36/16 A2997 RMK A01 T03640158  RH  030%=      5-min Rain = 0
KME1 211921Z 13008KT 36/16 A2997 RMK A01 T03640156  RH  029%=      5-min Rain = 0
KME1 211922Z 14006KT 36/15 A2997 RMK A01 T03640154  RH  029%=      5-min Rain = 0
KME1 211923Z 17010KT 36/15 A2997 RMK A01 T03630148  RH  028%=      5-min Rain = 0
KME1 211924Z 15010KT 36/15 A2997 RMK A01 T03620145  RH  027%=      5-min Rain = 0
KME1 211925Z 15010KT 36/15 A2997 RMK A01 T03600147  RH  028%=      5-min Rain = 0
KME1 211926Z 17009KT 36/14 A2997 RMK A01 T03600141  RH  027%=      5-min Rain = 0
KME1 211927Z 17007KT 36/14 A2997 RMK A01 T03610136  RH  026%=      5-min Rain = 0
KME1 211928Z 18006G11KT 36/14 A2996 RMK A01 T03620141  RH  027%=      5-min Rain = 0
KME1 211929Z 19008KT 36/15 A2996 RMK A01 T03640147  RH  027%=      5-min Rain = 0
KME1 211930Z 16008KT 37/15 A2996 RMK A01 T03660154  RH  029%=      5-min Rain = 0
KME1 211931Z 16009KT 37/16 A2996 RMK A01 T03660162  RH  030%=      5-min Rain = 0
KME1 211932Z 16009KT 37/16 A2996 RMK A01 T03650159  RH  030%=      5-min Rain = 0
KME1 211933Z 16007KT 36/16 A2996 RMK A01 T03620157  RH  030%=      5-min Rain = 0
KME1 211934Z 17006KT 36/16 A2996 RMK A01 T03600157  RH  030%=      5-min Rain = 0
KME1 211935Z 22003KT 36/15 A2996 RMK A01 T03590150  RH  029%=      5-min Rain = 0
KME1 211936Z 13001KT 36/15 A2996 RMK A01 T03590150  RH  029%=      5-min Rain = 0
KME1 211937Z 10001KT 36/15 A2996 RMK A01 T03590153  RH  029%=      5-min Rain = 0
KME1 211938Z 09002KT 36/16 A2996 RMK A01 T03600159  RH  030%=      5-min Rain = 0
KME1 211939Z 20008KT 36/15 A2996 RMK A01 T03620154  RH  029%=      5-min Rain = 0
KME1 211940Z 20009KT 36/15 A2996 RMK A01 T03630154  RH  029%=      5-min Rain = 0
KME1 211941Z 19008KT 36/15 A2996 RMK A01 T03630153  RH  029%=      5-min Rain = 0
KME1 211942Z 17008KT 36/16 A2996 RMK A01 T03630155  RH  029%=      5-min Rain = 0
KME1 211943Z 16008KT 36/15 A2996 RMK A01 T03640154  RH  029%=      5-min Rain = 0
KME1 211944Z 17009KT 37/14 A2996 RMK A01 T03650141  RH  026%=      5-min Rain = 0
KME1 211945Z 14008KT 37/15 A2996 RMK A01 T03650145  RH  027%=      5-min Rain = 0
KME1 211946Z 12008KT 37/15 A2996 RMK A01 T03650152  RH  028%=      5-min Rain = 0
KME1 211947Z 13008KT 37/15 A2996 RMK A01 T03650148  RH  028%=      5-min Rain = 0
KME1 211948Z 14006KT 36/14 A2996 RMK A01 T03640144  RH  027%=      5-min Rain = 0
KME1 211949Z 14003KT 36/13 A2996 RMK A01 T03630132  RH  025%=      5-min Rain = 0
KME1 211950Z 15005KT 36/14 A2996 RMK A01 T03630139  RH  026%=      5-min Rain = 0
KME1 211951Z 14007KT 37/14 A2995 RMK A01 T03650144  RH  027%=      5-min Rain = 0
KME1 211952Z 16007G12KT 37/15 A2995 RMK A01 T03670148  RH  027%=      5-min Rain = 0
KME1 211953Z 17011KT 37/14 A2995 RMK A01 T03690137  RH  025%=      5-min Rain = 0
KME1 211954Z 18010KT 37/14 A2995 RMK A01 T03690135  RH  025%=      5-min Rain = 0
KME1 211955Z 19008KT 37/14 A2995 RMK A01 T03670136  RH  025%=      5-min Rain = 0
KME1 211956Z 19008KT 37/14 A2995 RMK A01 T03650143  RH  027%=      5-min Rain = 0
KME1 211957Z 18007KT 37/14 A2995 RMK A01 T03660143  RH  026%=      5-min Rain = 0
KME1 211958Z 19007KT 37/14 A2995 RMK A01 T03680141  RH  026%=      5-min Rain = 0
KME1 211959Z 17006KT 37/14 A2995 RMK A01 T03670138  RH  026%=      5-min Rain = 0
KME1 212000Z 15010KT 37/14 A2995 RMK A01 T03650139  RH  026%=      5-min Rain = 0
KME1 212001Z 14007KT 37/13 A2995 RMK A01 T03660129  RH  024%=      5-min Rain = 0
KME1 212002Z 15009KT 37/13 A2995 RMK A01 T03650134  RH  025%=      5-min Rain = 0
KME1 212003Z 16009KT 37/14 A2995 RMK A01 T03660138  RH  026%=      5-min Rain = 0
KME1 212004Z 15007G12KT 37/15 A2995 RMK A01 T03690145  RH  026%=      5-min Rain = 0
KME1 212005Z 15009KT 37/15 A2995 RMK A01 T03720146  RH  026%=      5-min Rain = 0
KME1 212006Z 19007KT 37/14 A2995 RMK A01 T03730144  RH  026%=      5-min Rain = 0
KME1 212007Z 17006KT 37/14 A2995 RMK A01 T03720141  RH  025%=      5-min Rain = 0
KME1 212008Z 14006KT 37/15 A2995 RMK A01 T03710147  RH  027%=      5-min Rain = 0
KME1 212009Z 15007KT 37/15 A2995 RMK A01 T03700148  RH  027%=      5-min Rain = 0
KME1 212010Z 15011KT 37/15 A2995 RMK A01 T03700154  RH  028%=      5-min Rain = 0
KME1 212011Z 15009KT 37/15 A2995 RMK A01 T03710153  RH  028%=      5-min Rain = 0
KME1 212012Z 15009KT 37/15 A2995 RMK A01 T03700148  RH  027%=      5-min Rain = 0
KME1 212013Z 14008KT 37/14 A2995 RMK A01 T03680142  RH  026%=      5-min Rain = 0
KME1 212014Z 15007KT 37/14 A2995 RMK A01 T03650140  RH  026%=      5-min Rain = 0
KME1 212015Z 16005KT 36/14 A2995 RMK A01 T03630141  RH  027%=      5-min Rain = 0
KME1 212016Z 15003KT 36/15 A2995 RMK A01 T03620145  RH  027%=      5-min Rain = 0
KME1 212017Z 20002KT 36/14 A2995 RMK A01 T03630142  RH  027%=      5-min Rain = 0
KME1 212018Z 17011KT 37/14 A2995 RMK A01 T03650141  RH  026%=      5-min Rain = 0
KME1 212019Z 16010KT 37/13 A2995 RMK A01 T03680134  RH  025%=      5-min Rain = 0
KME1 212020Z 15008KT 37/13 A2995 RMK A01 T03700131  RH  024%=      5-min Rain = 0
KME1 212021Z 16009KT 37/13 A2995 RMK A01 T03700132  RH  024%=      5-min Rain = 0
KME1 212022Z 16008KT 37/13 A2995 RMK A01 T03700131  RH  024%=      5-min Rain = 0
KME1 212023Z 15006KT 37/13 A2995 RMK A01 T03700129  RH  024%=      5-min Rain = 0
KME1 212024Z 14007G13KT 37/13 A2995 RMK A01 T03690130  RH  024%=      5-min Rain = 0
KME1 212025Z 15011KT 37/14 A2995 RMK A01 T03690144  RH  026%=      5-min Rain = 0
KME1 212026Z 14007KT 37/15 A2995 RMK A01 T03690152  RH  028%=      5-min Rain = 0
KME1 212027Z 13007KT 37/15 A2995 RMK A01 T03700152  RH  027%=      5-min Rain = 0
KME1 212028Z 12007KT 37/15 A2995 RMK A01 T03700149  RH  027%=      5-min Rain = 0
KME1 212029Z 14005KT 37/15 A2995 RMK A01 T03680149  RH  027%=      5-min Rain = 0
KME1 212030Z 13007KT 37/15 A2995 RMK A01 T03670146  RH  027%=      5-min Rain = 0
KME1 212031Z 15005KT 37/14 A2995 RMK A01 T03670141  RH  026%=      5-min Rain = 0
KME1 212032Z 16009KT 37/14 A2994 RMK A01 T03670143  RH  026%=      5-min Rain = 0
KME1 212033Z 16008KT 37/14 A2994 RMK A01 T03680144  RH  026%=      5-min Rain = 0
KME1 212034Z 14005KT 37/15 A2994 RMK A01 T03680145  RH  026%=      5-min Rain = 0
KME1 212035Z 16003KT 37/14 A2994 RMK A01 T03680143  RH  026%=      5-min Rain = 0
KME1 212036Z 18006KT 37/14 A2994 RMK A01 T03680144  RH  026%=      5-min Rain = 0
KME1 212037Z 18013KT 37/14 A2994 RMK A01 T03700141  RH  026%=      5-min Rain = 0
KME1 212038Z 18011KT 37/14 A2994 RMK A01 T03710139  RH  025%=      5-min Rain = 0
KME1 212039Z 18009KT 37/14 A2994 RMK A01 T03700142  RH  026%=      5-min Rain = 0
KME1 212040Z 18007KT 37/14 A2994 RMK A01 T03700142  RH  026%=      5-min Rain = 0
KME1 212041Z 18007KT 37/15 A2994 RMK A01 T03690149  RH  027%=      5-min Rain = 0
KME1 212042Z 18010KT 37/15 A2994 RMK A01 T03720151  RH  027%=      5-min Rain = 0
KME1 212043Z 18014KT 37/15 A2994 RMK A01 T03740148  RH  026%=      5-min Rain = 0
KME1 212044Z 18013KT 37/14 A2994 RMK A01 T03720143  RH  026%=      5-min Rain = 0
KME1 212045Z 16009KT 37/15 A2994 RMK A01 T03710145  RH  026%=      5-min Rain = 0
KME1 212046Z 15006KT 37/15 A2994 RMK A01 T03700147  RH  027%=      5-min Rain = 0
KME1 212047Z 14006KT 37/15 A2994 RMK A01 T03700148  RH  027%=      5-min Rain = 0
KME1 212048Z 14004KT 37/14 A2994 RMK A01 T03700144  RH  026%=      5-min Rain = 0
KME1 212049Z 16004KT 37/15 A2994 RMK A01 T03690150  RH  027%=      5-min Rain = 0
KME1 212050Z 17006KT 37/14 A2994 RMK A01 T03690144  RH  026%=      5-min Rain = 0
KME1 212051Z 15004KT 37/14 A2994 RMK A01 T03700143  RH  026%=      5-min Rain = 0
KME1 212052Z 16007KT 37/15 A2994 RMK A01 T03700146  RH  026%=      5-min Rain = 0
KME1 212053Z 16005KT 37/14 A2994 RMK A01 T03700138  RH  025%=      5-min Rain = 0
KME1 212054Z 18006KT 37/15 A2994 RMK A01 T03700147  RH  027%=      5-min Rain = 0
KME1 212055Z 18007KT 37/14 A2994 RMK A01 T03720144  RH  026%=      5-min Rain = 0
KME1 212056Z 15006G11KT 37/14 A2994 RMK A01 T03720141  RH  025%=      5-min Rain = 0
KME1 212057Z 14008KT 37/14 A2994 RMK A01 T03720141  RH  025%=      5-min Rain = 0
KME1 212058Z 14008KT 37/14 A2994 RMK A01 T03730137  RH  025%=      5-min Rain = 0
KME1 212059Z 12008KT 37/14 A2994 RMK A01 T03740136  RH  024%=      5-min Rain = 0
KME1 212100Z 13010KT 37/13 A2994 RMK A01 T03740132  RH  024%=      5-min Rain = 0
KME1 212101Z 13010KT 37/14 A2994 RMK A01 T03740135  RH  024%=      5-min Rain = 0
KME1 212102Z 13006KT 37/14 A2994 RMK A01 T03720135  RH  024%=      5-min Rain = 0
KME1 212103Z 10008KT 37/14 A2994 RMK A01 T03710139  RH  025%=      5-min Rain = 0
KME1 212104Z 09006KT 37/14 A2993 RMK A01 T03700143  RH  026%=      5-min Rain = 0
KME1 212105Z 16004KT 37/14 A2993 RMK A01 T03700139  RH  025%=      5-min Rain = 0
KME1 212106Z 16005KT 37/14 A2993 RMK A01 T03710143  RH  026%=      5-min Rain = 0
KME1 212107Z 12013KT 37/15 A2993 RMK A01 T03730149  RH  026%=      5-min Rain = 0
KME1 212108Z 13008KT 37/14 A2993 RMK A01 T03720144  RH  026%=      5-min Rain = 0
KME1 212109Z 12004KT 37/14 A2993 RMK A01 T03700141  RH  026%=      5-min Rain = 0
KME1 212110Z 11006KT 37/15 A2993 RMK A01 T03680147  RH  027%=      5-min Rain = 0
KME1 212111Z 14010KT 37/15 A2993 RMK A01 T03680146  RH  027%=      5-min Rain = 0
KME1 212112Z 11008KT 37/15 A2993 RMK A01 T03690147  RH  027%=      5-min Rain = 0
KME1 212113Z 09009KT 37/15 A2993 RMK A01 T03700147  RH  027%=      5-min Rain = 0
KME1 212114Z 07007KT 37/14 A2993 RMK A01 T03700143  RH  026%=      5-min Rain = 0
KME1 212115Z 05005KT 37/14 A2993 RMK A01 T03680143  RH  026%=      5-min Rain = 0
KME1 212116Z 07003KT 37/14 A2993 RMK A01 T03680144  RH  026%=      5-min Rain = 0
KME1 212117Z 18007G13KT 37/14 A2993 RMK A01 T03690141  RH  026%=      5-min Rain = 0
KME1 212118Z 16008KT 37/14 A2993 RMK A01 T03700140  RH  025%=      5-min Rain = 0
KME1 212119Z 14009KT 37/14 A2993 RMK A01 T03740139  RH  025%=      5-min Rain = 0
KME1 212120Z 13007KT 38/14 A2993 RMK A01 T03750139  RH  025%=      5-min Rain = 0
KME1 212121Z 14007KT 38/14 A2993 RMK A01 T03750143  RH  025%=      5-min Rain = 0
KME1 212122Z 17010KT 38/14 A2993 RMK A01 T03750142  RH  025%=      5-min Rain = 0
KME1 212123Z 17009KT 38/14 A2993 RMK A01 T03760141  RH  025%=      5-min Rain = 0
KME1 212124Z 15006KT 37/14 A2993 RMK A01 T03740142  RH  025%=      5-min Rain = 0
KME1 212125Z 14008KT 37/14 A2993 RMK A01 T03720142  RH  025%=      5-min Rain = 0
KME1 212126Z 13008KT 37/15 A2993 RMK A01 T03710146  RH  026%=      5-min Rain = 0
KME1 212127Z 14009KT 37/15 A2993 RMK A01 T03720151  RH  027%=      5-min Rain = 0
KME1 212128Z 16009KT 38/15 A2992 RMK A01 T03750153  RH  027%=      5-min Rain = 0
KME1 212129Z 15008KT 38/15 A2992 RMK A01 T03760152  RH  027%=      5-min Rain = 0
KME1 212130Z 14008KT 38/15 A2992 RMK A01 T03760148  RH  026%=      5-min Rain = 0
KME1 212131Z 12007KT 38/16 A2993 RMK A01 T03750155  RH  027%=      5-min Rain = 0
KME1 212132Z 14008KT 38/15 A2993 RMK A01 T03750152  RH  027%=      5-min Rain = 0
KME1 212133Z 14009KT 38/15 A2993 RMK A01 T03760151  RH  026%=      5-min Rain = 0
KME1 212134Z 12008KT 38/15 A2993 RMK A01 T03760145  RH  025%=      5-min Rain = 0
KME1 212135Z 11006KT 38/15 A2993 RMK A01 T03750150  RH  026%=      5-min Rain = 0
KME1 212136Z 09008G16KT 38/15 A2992 RMK A01 T03750146  RH  026%=      5-min Rain = 0
KME1 212137Z 14011KT 37/15 A2992 RMK A01 T03740146  RH  026%=      5-min Rain = 0
KME1 212138Z 14010KT 37/14 A2992 RMK A01 T03740142  RH  025%=      5-min Rain = 0
KME1 212139Z 12009KT 37/14 A2992 RMK A01 T03740144  RH  026%=      5-min Rain = 0
KME1 212140Z 12010KT 37/14 A2992 RMK A01 T03740142  RH  025%=      5-min Rain = 0
KME1 212141Z 11009KT 37/14 A2992 RMK A01 T03730141  RH  025%=      5-min Rain = 0
KME1 212142Z 12012KT 37/14 A2992 RMK A01 T03720144  RH  026%=      5-min Rain = 0
KME1 212143Z 12009G14KT 37/14 A2992 RMK A01 T03720137  RH  025%=      5-min Rain = 0
KME1 212144Z 13008KT 37/14 A2992 RMK A01 T03700136  RH  025%=      5-min Rain = 0
KME1 212145Z 11005KT 37/14 A2992 RMK A01 T03680137  RH  025%=      5-min Rain = 0
KME1 212146Z 13004KT 37/14 A2992 RMK A01 T03690142  RH  026%=      5-min Rain = 0
KME1 212147Z 16005KT 37/14 A2992 RMK A01 T03710142  RH  026%=      5-min Rain = 0
KME1 212148Z 15005KT 37/14 A2992 RMK A01 T03730142  RH  025%=      5-min Rain = 0
KME1 212149Z 14008G13KT 38/14 A2992 RMK A01 T03750144  RH  025%=      5-min Rain = 0
KME1 212150Z 14009KT 38/14 A2992 RMK A01 T03760142  RH  025%=      5-min Rain = 0
KME1 212151Z 14011KT 37/14 A2992 RMK A01 T03740138  RH  025%=      5-min Rain = 0
KME1 212152Z 15012KT 37/14 A2992 RMK A01 T03730140  RH  025%=      5-min Rain = 0
KME1 212153Z 16011KT 37/14 A2992 RMK A01 T03730137  RH  025%=      5-min Rain = 0
KME1 212154Z 15010KT 37/14 A2992 RMK A01 T03730138  RH  025%=      5-min Rain = 0
KME1 212155Z 14007KT 37/14 A2992 RMK A01 T03730138  RH  025%=      5-min Rain = 0
KME1 212156Z 13006KT 37/14 A2992 RMK A01 T03730143  RH  026%=      5-min Rain = 0
KME1 212157Z 15007KT 38/14 A2991 RMK A01 T03750137  RH  024%=      5-min Rain = 0
KME1 212158Z 16006KT 38/14 A2991 RMK A01 T03750135  RH  024%=      5-min Rain = 0
KME1 212159Z 12007KT 37/14 A2992 RMK A01 T03740141  RH  025%=      5-min Rain = 0
KME1 212200Z 10008KT 37/14 A2991 RMK A01 T03740141  RH  025%=      5-min Rain = 0
KME1 212201Z 15006KT 38/14 A2992 RMK A01 T03750138  RH  024%=      5-min Rain = 0
KME1 212202Z 12005KT 38/13 A2992 RMK A01 T03760134  RH  024%=      5-min Rain = 0
KME1 212203Z 10006KT 38/14 A2992 RMK A01 T03760135  RH  024%=      5-min Rain = 0
KME1 212204Z 12007KT 37/13 A2991 RMK A01 T03730127  RH  023%=      5-min Rain = 0
KME1 212205Z 11008KT 37/13 A2991 RMK A01 T03720132  RH  024%=      5-min Rain = 0
KME1 212206Z 14009KT 37/13 A2991 RMK A01 T03720134  RH  024%=      5-min Rain = 0
KME1 212207Z 16010KT 37/13 A2991 RMK A01 T03730133  RH  024%=      5-min Rain = 0
KME1 212208Z 16009KT 37/13 A2991 RMK A01 T03730130  RH  023%=      5-min Rain = 0
KME1 212209Z 13008KT 37/14 A2991 RMK A01 T03730135  RH  024%=      5-min Rain = 0
KME1 212210Z 11011KT 37/13 A2991 RMK A01 T03730134  RH  024%=      5-min Rain = 0
KME1 212211Z 13010KT 37/13 A2991 RMK A01 T03720132  RH  024%=      5-min Rain = 0
KME1 212212Z 12008KT 37/14 A2991 RMK A01 T03710139  RH  025%=      5-min Rain = 0
KME1 212213Z 12010KT 37/14 A2991 RMK A01 T03720136  RH  024%=      5-min Rain = 0
KME1 212214Z 11012KT 37/13 A2991 RMK A01 T03730131  RH  024%=      5-min Rain = 0
KME1 212215Z 11011KT 37/13 A2991 RMK A01 T03720132  RH  024%=      5-min Rain = 0
KME1 212216Z 12011KT 37/13 A2991 RMK A01 T03710130  RH  024%=      5-min Rain = 0
KME1 212217Z 15009KT 37/13 A2991 RMK A01 T03700129  RH  024%=      5-min Rain = 0
KME1 212218Z 13008KT 37/13 A2991 RMK A01 T03700126  RH  023%=      5-min Rain = 0
KME1 212219Z 13009KT 37/13 A2991 RMK A01 T03710131  RH  024%=      5-min Rain = 0
KME1 212220Z 13010KT 37/13 A2991 RMK A01 T03720126  RH  023%=      5-min Rain = 0
KME1 212221Z 13009KT 37/13 A2991 RMK A01 T03710126  RH  023%=      5-min Rain = 0
KME1 212222Z 12010G15KT 37/13 A2991 RMK A01 T03710128  RH  023%=      5-min Rain = 0
KME1 212223Z 12010KT 37/13 A2991 RMK A01 T03710132  RH  024%=      5-min Rain = 0
KME1 212224Z 12009G14KT 37/13 A2991 RMK A01 T03710128  RH  023%=      5-min Rain = 0
KME1 212225Z 10010KT 37/13 A2991 RMK A01 T03710128  RH  023%=      5-min Rain = 0
KME1 212226Z 10010KT 37/12 A2991 RMK A01 T03700121  RH  022%=      5-min Rain = 0
KME1 212227Z 11009KT 37/12 A2991 RMK A01 T03700123  RH  023%=      5-min Rain = 0
KME1 212228Z 11009KT 37/13 A2991 RMK A01 T03690126  RH  023%=      5-min Rain = 0
KME1 212229Z 13010KT 37/13 A2991 RMK A01 T03700126  RH  023%=      5-min Rain = 0
KME1 212230Z 14008KT 37/13 A2991 RMK A01 T03700133  RH  024%=      5-min Rain = 0
KME1 212231Z 12007KT 37/13 A2991 RMK A01 T03720133  RH  024%=      5-min Rain = 0
KME1 212232Z 12010KT 37/14 A2991 RMK A01 T03740136  RH  024%=      5-min Rain = 0
KME1 212233Z 11011KT 37/13 A2991 RMK A01 T03730132  RH  024%=      5-min Rain = 0
KME1 212234Z 11010KT 37/13 A2991 RMK A01 T03700131  RH  024%=      5-min Rain = 0
KME1 212235Z 10009KT 37/13 A2991 RMK A01 T03690127  RH  024%=      5-min Rain = 0
KME1 212236Z 11008KT 37/13 A2991 RMK A01 T03670127  RH  024%=      5-min Rain = 0
KME1 212237Z 11010KT 37/12 A2991 RMK A01 T03670122  RH  023%=      5-min Rain = 0
KME1 212238Z 11010KT 37/12 A2991 RMK A01 T03670120  RH  023%=      5-min Rain = 0
KME1 212239Z 12010KT 37/13 A2991 RMK A01 T03670125  RH  023%=      5-min Rain = 0
KME1 212240Z 13011KT 37/13 A2991 RMK A01 T03690128  RH  024%=      5-min Rain = 0
KME1 212241Z 14011G16KT 37/13 A2991 RMK A01 T03700125  RH  023%=      5-min Rain = 0
KME1 212242Z 13009G15KT 37/13 A2991 RMK A01 T03700125  RH  023%=      5-min Rain = 0
KME1 212243Z 14007KT 37/13 A2991 RMK A01 T03690129  RH  024%=      5-min Rain = 0
KME1 212244Z 15008KT 37/13 A2991 RMK A01 T03690130  RH  024%=      5-min Rain = 0
KME1 212245Z 16006KT 37/13 A2991 RMK A01 T03700133  RH  024%=      5-min Rain = 0
KME1 212246Z 15007KT 37/13 A2991 RMK A01 T03720134  RH  024%=      5-min Rain = 0
KME1 212247Z 16006KT 37/13 A2991 RMK A01 T03730129  RH  023%=      5-min Rain = 0
KME1 212248Z 17005KT 37/12 A2991 RMK A01 T03730124  RH  023%=      5-min Rain = 0
KME1 212249Z 16005KT 37/13 A2991 RMK A01 T03720125  RH  023%=      5-min Rain = 0
KME1 212250Z 13007KT 37/12 A2991 RMK A01 T03720122  RH  022%=      5-min Rain = 0
KME1 212251Z 14007KT 37/12 A2991 RMK A01 T03720123  RH  022%=      5-min Rain = 0
KME1 212252Z 17007KT 37/12 A2991 RMK A01 T03720120  RH  022%=      5-min Rain = 0
KME1 212253Z 17008KT 37/11 A2991 RMK A01 T03730113  RH  021%=      5-min Rain = 0
KME1 212254Z 17006KT 37/11 A2991 RMK A01 T03730108  RH  020%=      5-min Rain = 0
KME1 212255Z 19004KT 37/11 A2991 RMK A01 T03720112  RH  021%=      5-min Rain = 0
KME1 212256Z 15008G14KT 37/12 A2991 RMK A01 T03730121  RH  022%=      5-min Rain = 0
KME1 212257Z 14010KT 37/12 A2991 RMK A01 T03730120  RH  022%=      5-min Rain = 0
KME1 212258Z 16009KT 37/12 A2991 RMK A01 T03730124  RH  023%=      5-min Rain = 0
KME1 212259Z 15008KT 37/12 A2991 RMK A01 T03720122  RH  022%=      5-min Rain = 0
KME1 212300Z 16008KT 37/12 A2991 RMK A01 T03720120  RH  022%=      5-min Rain = 0
KME1 212301Z 16009KT 37/12 A2991 RMK A01 T03710117  RH  022%=      5-min Rain = 0
KME1 212302Z 15008KT 37/12 A2991 RMK A01 T03700124  RH  023%=      5-min Rain = 0
KME1 212303Z 14009KT 37/12 A2991 RMK A01 T03700124  RH  023%=      5-min Rain = 0
KME1 212304Z 13011KT 37/13 A2991 RMK A01 T03700125  RH  023%=      5-min Rain = 0
KME1 212305Z 16006KT 37/13 A2991 RMK A01 T03690127  RH  023%=      5-min Rain = 0
KME1 212306Z 14008KT 37/13 A2991 RMK A01 T03690131  RH  024%=      5-min Rain = 0
KME1 212307Z 13005KT 37/13 A2991 RMK A01 T03690132  RH  024%=      5-min Rain = 0
KME1 212308Z 10007KT 37/14 A2991 RMK A01 T03690137  RH  025%=      5-min Rain = 0
KME1 212309Z 11008KT 37/13 A2991 RMK A01 T03690133  RH  024%=      5-min Rain = 0
KME1 212310Z 11008KT 37/13 A2991 RMK A01 T03680133  RH  025%=      5-min Rain = 0
KME1 212311Z 12009KT 37/14 A2991 RMK A01 T03680136  RH  025%=      5-min Rain = 0
KME1 212312Z 11010KT 37/14 A2991 RMK A01 T03680137  RH  025%=      5-min Rain = 0
KME1 212313Z 13008KT 37/13 A2991 RMK A01 T03680132  RH  024%=      5-min Rain = 0
KME1 212314Z 14006KT 37/14 A2991 RMK A01 T03670137  RH  025%=      5-min Rain = 0
KME1 212315Z 13006KT 37/14 A2991 RMK A01 T03680136  RH  025%=      5-min Rain = 0
KME1 212316Z 12005KT 37/14 A2991 RMK A01 T03680137  RH  025%=      5-min Rain = 0
KME1 212317Z 11006KT 37/14 A2991 RMK A01 T03680135  RH  025%=      5-min Rain = 0
KME1 212318Z 12005KT 37/13 A2991 RMK A01 T03670133  RH  025%=      5-min Rain = 0
KME1 212319Z 10005KT 37/14 A2991 RMK A01 T03660141  RH  026%=      5-min Rain = 0
KME1 212320Z 09008KT 37/14 A2991 RMK A01 T03670138  RH  026%=      5-min Rain = 0
KME1 212321Z 10009KT 37/13 A2991 RMK A01 T03660134  RH  025%=      5-min Rain = 0
KME1 212322Z 11009KT 37/13 A2991 RMK A01 T03660131  RH  025%=      5-min Rain = 0
KME1 212323Z 12011KT 37/13 A2991 RMK A01 T03650127  RH  024%=      5-min Rain = 0
KME1 212324Z 12009KT 37/13 A2991 RMK A01 T03650129  RH  024%=      5-min Rain = 0
KME1 212325Z 11009KT 36/13 A2991 RMK A01 T03640129  RH  024%=      5-min Rain = 0
KME1 212326Z 10009KT 36/13 A2991 RMK A01 T03640129  RH  024%=      5-min Rain = 0
KME1 212327Z 10007KT 36/13 A2991 RMK A01 T03640127  RH  024%=      5-min Rain = 0
KME1 212328Z 10006KT 36/13 A2991 RMK A01 T03640131  RH  025%=      5-min Rain = 0
KME1 212329Z 14008G13KT 36/13 A2991 RMK A01 T03640131  RH  025%=      5-min Rain = 0
KME1 212330Z 13014KT 36/13 A2991 RMK A01 T03640129  RH  024%=      5-min Rain = 0
KME1 212331Z 12010KT 36/13 A2991 RMK A01 T03640129  RH  024%=      5-min Rain = 0
KME1 212332Z 12008KT 36/13 A2991 RMK A01 T03640133  RH  025%=      5-min Rain = 0
KME1 212333Z 12008KT 36/13 A2991 RMK A01 T03630133  RH  025%=      5-min Rain = 0
KME1 212334Z 13008KT 36/13 A2991 RMK A01 T03640133  RH  025%=      5-min Rain = 0
KME1 212335Z 13008KT 36/13 A2991 RMK A01 T03630131  RH  025%=      5-min Rain = 0
KME1 212336Z 13007KT 36/13 A299 RMK A01 T03640126  RH  024%=      5-min Rain = 0
KME1 212337Z 13009KT 36/13 A299 RMK A01 T03630130  RH  025%=      5-min Rain = 0
KME1 212338Z 14007KT 36/13 A299 RMK A01 T03640128  RH  024%=      5-min Rain = 0
KME1 212339Z 13008KT 36/13 A299 RMK A01 T03640132  RH  025%=      5-min Rain = 0
KME1 212340Z 15011KT 36/13 A299 RMK A01 T03640129  RH  024%=      5-min Rain = 0
KME1 212341Z 13010KT 36/13 A299 RMK A01 T03640127  RH  024%=      5-min Rain = 0
KME1 212342Z 13008KT 36/13 A299 RMK A01 T03640125  RH  024%=      5-min Rain = 0
KME1 212343Z 14008KT 36/12 A299 RMK A01 T03640123  RH  024%=      5-min Rain = 0
KME1 212344Z 14006KT 36/12 A299 RMK A01 T03640123  RH  024%=      5-min Rain = 0
KME1 212345Z 13006KT 36/13 A299 RMK A01 T03640129  RH  024%=      5-min Rain = 0
KME1 212346Z 15007KT 36/13 A2991 RMK A01 T03640129  RH  024%=      5-min Rain = 0
KME1 212347Z 14007KT 36/13 A2991 RMK A01 T03640130  RH  025%=      5-min Rain = 0
KME1 212348Z 16008KT 37/14 A2991 RMK A01 T03650137  RH  026%=      5-min Rain = 0
KME1 212349Z 15007KT 37/14 A2991 RMK A01 T03650137  RH  026%=      5-min Rain = 0
KME1 212350Z 12006KT 37/14 A2991 RMK A01 T03650136  RH  025%=      5-min Rain = 0
KME1 212351Z 14009KT 36/13 A2991 RMK A01 T03640133  RH  025%=      5-min Rain = 0
KME1 212352Z 14010KT 36/13 A2991 RMK A01 T03630129  RH  025%=      5-min Rain = 0
KME1 212353Z 14009KT 36/13 A2991 RMK A01 T03630126  RH  024%=      5-min Rain = 0
KME1 212354Z 13009KT 36/13 A2991 RMK A01 T03630128  RH  024%=      5-min Rain = 0
KME1 212355Z 13007KT 36/13 A2991 RMK A01 T03620127  RH  024%=      5-min Rain = 0
KME1 212356Z 15007KT 36/13 A2991 RMK A01 T03620131  RH  025%=      5-min Rain = 0
KME1 212357Z 15007KT 36/13 A2991 RMK A01 T03630128  RH  024%=      5-min Rain = 0
KME1 212358Z 15006KT 36/13 A2991 RMK A01 T03620129  RH  025%=      5-min Rain = 0
KME1 212359Z 15007KT 36/12 A2991 RMK A01 T03630124  RH  024%=      5-min Rain = 0
KME1 220000Z 14005KT 36/13 A2991 RMK A01 T03630128  RH  024%=      5-min Rain = 0
KME1 220001Z 15007KT 36/13 A2991 RMK A01 T03620129  RH  025%=      5-min Rain = 0
KME1 220002Z 14010KT 36/13 A2991 RMK A01 T03620131  RH  025%=      5-min Rain = 0
KME1 220003Z 14009KT 36/13 A2991 RMK A01 T03610127  RH  025%=      5-min Rain = 0
KME1 220004Z 14006KT 36/13 A2991 RMK A01 T03600128  RH  025%=      5-min Rain = 0
KME1 220005Z 13008KT 36/13 A2991 RMK A01 T03600127  RH  025%=      5-min Rain = 0
KME1 220006Z 14007KT 36/13 A2991 RMK A01 T03600126  RH  024%=      5-min Rain = 0
KME1 220007Z 13006KT 36/13 A2991 RMK A01 T03600125  RH  024%=      5-min Rain = 0
KME1 220008Z 15007KT 36/13 A2991 RMK A01 T03600128  RH  025%=      5-min Rain = 0
KME1 220009Z 12008KT 36/13 A2991 RMK A01 T03600128  RH  025%=      5-min Rain = 0
KME1 220010Z 12007KT 36/13 A2991 RMK A01 T03590130  RH  025%=      5-min Rain = 0
KME1 220011Z 11008KT 36/13 A2991 RMK A01 T03580129  RH  025%=      5-min Rain = 0
KME1 220012Z 13006KT 36/13 A2991 RMK A01 T03570125  RH  025%=      5-min Rain = 0
KME1 220013Z 15009KT 36/13 A2991 RMK A01 T03570126  RH  025%=      5-min Rain = 0
KME1 220014Z 16009KT 36/13 A2991 RMK A01 T03570126  RH  025%=      5-min Rain = 0
KME1 220015Z 16011KT 36/12 A2991 RMK A01 T03570124  RH  025%=      5-min Rain = 0
KME1 220016Z 16008KT 36/12 A2991 RMK A01 T03570120  RH  024%=      5-min Rain = 0
KME1 220017Z 16008KT 36/12 A2991 RMK A01 T03570123  RH  024%=      5-min Rain = 0
KME1 220018Z 15007KT 36/13 A2991 RMK A01 T03570125  RH  025%=      5-min Rain = 0
KME1 220019Z 13007KT 36/13 A2991 RMK A01 T03560125  RH  025%=      5-min Rain = 0
KME1 220020Z 13007KT 36/12 A2991 RMK A01 T03560122  RH  024%=      5-min Rain = 0
KME1 220021Z 14006KT 36/13 A2991 RMK A01 T03550125  RH  025%=      5-min Rain = 0
KME1 220022Z 14005KT 36/13 A2991 RMK A01 T03550128  RH  025%=      5-min Rain = 0
KME1 220023Z 15006KT 36/12 A2991 RMK A01 T03550124  RH  025%=      5-min Rain = 0
KME1 220024Z 16007KT 36/12 A2991 RMK A01 T03550120  RH  024%=      5-min Rain = 0
KME1 220025Z 16007KT 36/12 A2991 RMK A01 T03550120  RH  024%=      5-min Rain = 0
KME1 220026Z 15007KT 36/12 A2991 RMK A01 T03550123  RH  025%=      5-min Rain = 0
KME1 220027Z 16009KT 36/12 A2991 RMK A01 T03550122  RH  025%=      5-min Rain = 0
KME1 220028Z 16008KT 36/12 A2991 RMK A01 T03550122  RH  025%=      5-min Rain = 0
KME1 220029Z 17008KT 36/12 A2991 RMK A01 T03550124  RH  025%=      5-min Rain = 0
KME1 220030Z 17007KT 35/13 A2991 RMK A01 T03540127  RH  025%=      5-min Rain = 0
KME1 220031Z 17007KT 35/13 A2991 RMK A01 T03530125  RH  025%=      5-min Rain = 0
KME1 220032Z 16008KT 35/12 A2991 RMK A01 T03530124  RH  025%=      5-min Rain = 0
KME1 220033Z 16007KT 35/13 A2991 RMK A01 T03530126  RH  025%=      5-min Rain = 0
KME1 220034Z 16008KT 35/13 A2991 RMK A01 T03530125  RH  025%=      5-min Rain = 0
KME1 220035Z 17006KT 35/13 A2991 RMK A01 T03530128  RH  026%=      5-min Rain = 0
KME1 220036Z 15005KT 35/13 A2991 RMK A01 T03530133  RH  027%=      5-min Rain = 0
KME1 220037Z 14005KT 35/13 A2991 RMK A01 T03520134  RH  027%=      5-min Rain = 0
KME1 220038Z 15007KT 35/13 A2991 RMK A01 T03520132  RH  027%=      5-min Rain = 0
KME1 220039Z 16007KT 35/13 A2991 RMK A01 T03510128  RH  026%=      5-min Rain = 0
KME1 220040Z 16009KT 35/13 A2991 RMK A01 T03520128  RH  026%=      5-min Rain = 0
KME1 220041Z 16009KT 35/13 A2991 RMK A01 T03510126  RH  026%=      5-min Rain = 0
KME1 220042Z 15009KT 35/13 A2991 RMK A01 T03510127  RH  026%=      5-min Rain = 0
KME1 220043Z 15008KT 35/13 A2991 RMK A01 T03500128  RH  026%=      5-min Rain = 0
KME1 220044Z 16008KT 35/13 A2991 RMK A01 T03500129  RH  026%=      5-min Rain = 0
KME1 220045Z 15007KT 35/13 A2991 RMK A01 T03500130  RH  027%=      5-min Rain = 0
KME1 220046Z 15006KT 35/13 A2991 RMK A01 T03500131  RH  027%=      5-min Rain = 0
KME1 220047Z 15007KT 35/14 A2991 RMK A01 T03500135  RH  027%=      5-min Rain = 0
KME1 220048Z 14009KT 35/13 A2991 RMK A01 T03490134  RH  027%=      5-min Rain = 0
KME1 220049Z 14009KT 35/13 A2991 RMK A01 T03490134  RH  028%=      5-min Rain = 0
KME1 220050Z 15010KT 35/13 A2991 RMK A01 T03480134  RH  027%=      5-min Rain = 0
KME1 220051Z 14011KT 35/13 A2991 RMK A01 T03480134  RH  028%=      5-min Rain = 0
KME1 220052Z 14009KT 35/13 A2991 RMK A01 T03480133  RH  027%=      5-min Rain = 0
KME1 220053Z 14008KT 35/13 A2991 RMK A01 T03480133  RH  027%=      5-min Rain = 0
KME1 220054Z 14009KT 35/13 A2991 RMK A01 T03480133  RH  027%=      5-min Rain = 0
KME1 220055Z 15008KT 35/13 A2991 RMK A01 T03470133  RH  027%=      5-min Rain = 0
KME1 220056Z 14007KT 35/13 A2991 RMK A01 T03470134  RH  028%=      5-min Rain = 0
KME1 220057Z 15008KT 35/14 A2991 RMK A01 T03470137  RH  028%=      5-min Rain = 0
KME1 220058Z 15007KT 35/14 A2991 RMK A01 T03460136  RH  028%=      5-min Rain = 0
KME1 220059Z 16006KT 35/14 A2991 RMK A01 T03450138  RH  029%=      5-min Rain = 0
KME1 220100Z 15012KT 35/14 A2991 RMK A01 T03450137  RH  029%=      5-min Rain = 0
KME1 220101Z 15009KT 34/14 A2991 RMK A01 T03440136  RH  029%=      5-min Rain = 0
KME1 220102Z 16011KT 34/14 A2991 RMK A01 T03440136  RH  028%=      5-min Rain = 0
KME1 220103Z 16010KT 34/14 A2991 RMK A01 T03440135  RH  028%=      5-min Rain = 0
KME1 220104Z 16008KT 35/14 A2991 RMK A01 T03450137  RH  029%=      5-min Rain = 0
KME1 220105Z 15007KT 34/14 A2991 RMK A01 T03440138  RH  029%=      5-min Rain = 0
KME1 220106Z 15006KT 34/14 A2991 RMK A01 T03440138  RH  029%=      5-min Rain = 0
KME1 220107Z 16008KT 34/14 A2991 RMK A01 T03430139  RH  029%=      5-min Rain = 0
KME1 220108Z 16009KT 34/14 A2991 RMK A01 T03420138  RH  029%=      5-min Rain = 0
KME1 220109Z 16008KT 34/14 A2992 RMK A01 T03410135  RH  029%=      5-min Rain = 0
KME1 220110Z 16008KT 34/14 A2992 RMK A01 T03410135  RH  029%=      5-min Rain = 0
KME1 220111Z 17010KT 34/14 A2992 RMK A01 T03410135  RH  029%=      5-min Rain = 0
KME1 220112Z 16008KT 34/13 A2992 RMK A01 T03410133  RH  029%=      5-min Rain = 0
KME1 220113Z 15006KT 34/13 A2992 RMK A01 T03410134  RH  029%=      5-min Rain = 0
KME1 220114Z 15007KT 34/14 A2992 RMK A01 T03400136  RH  029%=      5-min Rain = 0
KME1 220115Z 15008KT 34/14 A2992 RMK A01 T03400135  RH  029%=      5-min Rain = 0
KME1 220116Z 14008KT 34/14 A2992 RMK A01 T03390135  RH  029%=      5-min Rain = 0
KME1 220117Z 15007KT 34/13 A2992 RMK A01 T03390134  RH  029%=      5-min Rain = 0
KME1 220118Z 15007KT 34/13 A2992 RMK A01 T03390134  RH  029%=      5-min Rain = 0
KME1 220119Z 15007KT 34/13 A2992 RMK A01 T03380134  RH  029%=      5-min Rain = 0
KME1 220120Z 15006KT 34/14 A2992 RMK A01 T03380135  RH  029%=      5-min Rain = 0
KME1 220121Z 14007KT 34/14 A2992 RMK A01 T03360135  RH  030%=      5-min Rain = 0
KME1 220122Z 14006KT 34/14 A2992 RMK A01 T03360136  RH  030%=      5-min Rain = 0
KME1 220123Z 15006KT 34/14 A2992 RMK A01 T03350136  RH  030%=      5-min Rain = 0
KME1 220124Z 15007KT 33/14 A2992 RMK A01 T03340135  RH  030%=      5-min Rain = 0
KME1 220125Z 15007KT 33/14 A2992 RMK A01 T03330135  RH  030%=      5-min Rain = 0
KME1 220126Z 15005KT 33/14 A2992 RMK A01 T03330136  RH  030%=      5-min Rain = 0
KME1 220127Z 15006KT 33/14 A2992 RMK A01 T03320136  RH  031%=      5-min Rain = 0
KME1 220128Z 15007KT 33/14 A2992 RMK A01 T03310136  RH  031%=      5-min Rain = 0
KME1 220129Z 15005KT 33/14 A2992 RMK A01 T03310135  RH  031%=      5-min Rain = 0
KME1 220130Z 15004KT 33/14 A2992 RMK A01 T03310136  RH  031%=      5-min Rain = 0
KME1 220131Z 15004KT 33/14 A2992 RMK A01 T03300137  RH  031%=      5-min Rain = 0
KME1 220132Z 15005KT 33/14 A2992 RMK A01 T03300138  RH  031%=      5-min Rain = 0
KME1 220133Z 16005KT 33/14 A2992 RMK A01 T03280138  RH  032%=      5-min Rain = 0
KME1 220134Z 16005KT 33/14 A2992 RMK A01 T03270138  RH  032%=      5-min Rain = 0
KME1 220135Z 15005KT 33/14 A2993 RMK A01 T03260138  RH  032%=      5-min Rain = 0
KME1 220136Z 15005KT 32/14 A2993 RMK A01 T03240137  RH  032%=      5-min Rain = 0
KME1 220137Z 15005KT 32/14 A2993 RMK A01 T03230138  RH  032%=      5-min Rain = 0
KME1 220138Z 15005KT 32/14 A2993 RMK A01 T03220138  RH  033%=      5-min Rain = 0
KME1 220139Z 15005KT 32/14 A2993 RMK A01 T03210138  RH  033%=      5-min Rain = 0
KME1 220140Z 15005KT 32/14 A2993 RMK A01 T03210138  RH  033%=      5-min Rain = 0
KME1 220141Z 15005KT 32/14 A2993 RMK A01 T03200139  RH  033%=      5-min Rain = 0
KME1 220142Z 15005KT 32/14 A2993 RMK A01 T03180138  RH  033%=      5-min Rain = 0
KME1 220143Z 15005KT 32/14 A2993 RMK A01 T03180138  RH  034%=      5-min Rain = 0
KME1 220144Z 14005KT 32/14 A2993 RMK A01 T03170138  RH  034%=      5-min Rain = 0
KME1 220145Z 15005KT 32/14 A2993 RMK A01 T03170139  RH  034%=      5-min Rain = 0
KME1 220146Z 15005KT 32/14 A2993 RMK A01 T03160138  RH  034%=      5-min Rain = 0
KME1 220147Z 15004KT 32/14 A2993 RMK A01 T03150139  RH  034%=      5-min Rain = 0
KME1 220148Z 14005KT 32/14 A2993 RMK A01 T03150139  RH  034%=      5-min Rain = 0
KME1 220149Z 15004KT 31/14 A2993 RMK A01 T03140139  RH  034%=      5-min Rain = 0
KME1 220150Z 15005KT 31/14 A2993 RMK A01 T03140139  RH  035%=      5-min Rain = 0
KME1 220151Z 15005KT 31/14 A2993 RMK A01 T03130140  RH  035%=      5-min Rain = 0
KME1 220152Z 15005KT 31/14 A2993 RMK A01 T03120140  RH  035%=      5-min Rain = 0
KME1 220153Z 15005KT 31/14 A2993 RMK A01 T03110140  RH  035%=      5-min Rain = 0
KME1 220154Z 15005KT 31/14 A2993 RMK A01 T03100139  RH  035%=      5-min Rain = 0
KME1 220155Z 15005KT 31/14 A2993 RMK A01 T03100139  RH  035%=      5-min Rain = 0
KME1 220156Z 15005KT 31/14 A2993 RMK A01 T03090139  RH  035%=      5-min Rain = 0
KME1 220157Z 15004KT 31/14 A2993 RMK A01 T03090139  RH  036%=      5-min Rain = 0
KME1 220158Z 16005KT 31/14 A2993 RMK A01 T03080139  RH  036%=      5-min Rain = 0
KME1 220159Z 15005KT 31/14 A2993 RMK A01 T03080139  RH  036%=      5-min Rain = 0
KME1 220200Z 15005KT 31/14 A2993 RMK A01 T03080140  RH  036%=      5-min Rain = 0
KME1 220201Z 15004KT 31/14 A2993 RMK A01 T03070139  RH  036%=      5-min Rain = 0
KME1 220202Z 15005KT 31/14 A2993 RMK A01 T03060139  RH  036%=      5-min Rain = 0
KME1 220203Z 16005KT 31/14 A2993 RMK A01 T03060139  RH  036%=      5-min Rain = 0
KME1 220204Z 16005KT 31/14 A2993 RMK A01 T03050138  RH  036%=      5-min Rain = 0
KME1 220205Z 16004KT 30/14 A2993 RMK A01 T03040138  RH  036%=      5-min Rain = 0
KME1 220206Z 15005KT 30/14 A2993 RMK A01 T03030137  RH  036%=      5-min Rain = 0
KME1 220207Z 16005KT 30/14 A2993 RMK A01 T03030138  RH  036%=      5-min Rain = 0
KME1 220208Z 15004KT 30/14 A2993 RMK A01 T03030138  RH  037%=      5-min Rain = 0
KME1 220209Z 15004KT 30/14 A2994 RMK A01 T03020137  RH  036%=      5-min Rain = 0
KME1 220210Z 15004KT 30/14 A2994 RMK A01 T03020137  RH  036%=      5-min Rain = 0
KME1 220211Z 15004KT 30/14 A2994 RMK A01 T03020138  RH  037%=      5-min Rain = 0
KME1 220212Z 16004KT 30/14 A2994 RMK A01 T03020139  RH  037%=      5-min Rain = 0
KME1 220213Z 15004KT 30/14 A2994 RMK A01 T03010138  RH  037%=      5-min Rain = 0
KME1 220214Z 15003KT 30/14 A2994 RMK A01 T03000138  RH  037%=      5-min Rain = 0
KME1 220215Z 15004KT 30/14 A2994 RMK A01 T02990139  RH  038%=      5-min Rain = 0
KME1 220216Z 14004KT 30/14 A2994 RMK A01 T02980139  RH  038%=      5-min Rain = 0
KME1 220217Z 14004KT 30/14 A2994 RMK A01 T02970140  RH  038%=      5-min Rain = 0
KME1 220218Z 12004KT 30/14 A2994 RMK A01 T02960139  RH  038%=      5-min Rain = 0
KME1 220219Z 10004KT 30/14 A2994 RMK A01 T02950140  RH  039%=      5-min Rain = 0
KME1 220220Z 09005KT 29/14 A2994 RMK A01 T02920141  RH  040%=      5-min Rain = 0
KME1 220221Z 10006KT 29/14 A2994 RMK A01 T02900140  RH  040%=      5-min Rain = 0
KME1 220222Z 12004KT 29/14 A2994 RMK A01 T02890139  RH  040%=      5-min Rain = 0
KME1 220223Z 12004KT 29/14 A2994 RMK A01 T02880139  RH  040%=      5-min Rain = 0
KME1 220224Z 12003KT 29/14 A2994 RMK A01 T02880139  RH  040%=      5-min Rain = 0
KME1 220225Z 12003KT 29/14 A2994 RMK A01 T02880140  RH  040%=      5-min Rain = 0
KME1 220226Z 12004KT 29/14 A2994 RMK A01 T02880139  RH  040%=      5-min Rain = 0
KME1 220227Z 12005KT 29/14 A2994 RMK A01 T02880139  RH  040%=      5-min Rain = 0
KME1 220228Z 11004KT 29/14 A2994 RMK A01 T02880139  RH  040%=      5-min Rain = 0
KME1 220229Z 12005KT 29/14 A2994 RMK A01 T02880139  RH  040%=      5-min Rain = 0
KME1 220230Z 12005KT 29/14 A2994 RMK A01 T02890139  RH  040%=      5-min Rain = 0
KME1 220231Z 13005KT 29/14 A2994 RMK A01 T02890139  RH  040%=      5-min Rain = 0
KME1 220232Z 13004KT 29/14 A2994 RMK A01 T02890139  RH  040%=      5-min Rain = 0
KME1 220233Z 12004KT 29/14 A2994 RMK A01 T02890140  RH  040%=      5-min Rain = 0
KME1 220234Z 12004KT 29/14 A2994 RMK A01 T02880139  RH  040%=      5-min Rain = 0
KME1 220235Z 12004KT 29/14 A2994 RMK A01 T02870139  RH  040%=      5-min Rain = 0
KME1 220236Z 12005KT 29/14 A2994 RMK A01 T02870139  RH  040%=      5-min Rain = 0
KME1 220237Z 12004KT 29/14 A2994 RMK A01 T02870140  RH  040%=      5-min Rain = 0
KME1 220238Z 12005KT 29/14 A2994 RMK A01 T02870139  RH  040%=      5-min Rain = 0
KME1 220239Z 12005KT 29/14 A2995 RMK A01 T02870140  RH  040%=      5-min Rain = 0
KME1 220240Z 11005KT 29/14 A2995 RMK A01 T02870139  RH  040%=      5-min Rain = 0
KME1 220241Z 11005KT 29/14 A2995 RMK A01 T02870139  RH  040%=      5-min Rain = 0
KME1 220242Z 12005KT 29/14 A2995 RMK A01 T02870139  RH  040%=      5-min Rain = 0
KME1 220243Z 12005KT 29/14 A2995 RMK A01 T02870139  RH  040%=      5-min Rain = 0
KME1 220244Z 13004KT 29/14 A2995 RMK A01 T02870139  RH  040%=      5-min Rain = 0
KME1 220245Z 12004KT 29/14 A2995 RMK A01 T02870139  RH  040%=      5-min Rain = 0
KME1 220246Z 12004KT 29/14 A2995 RMK A01 T02870139  RH  040%=      5-min Rain = 0
KME1 220247Z 12004KT 29/14 A2995 RMK A01 T02870139  RH  040%=      5-min Rain = 0
KME1 220248Z 13004KT 29/14 A2995 RMK A01 T02870139  RH  040%=      5-min Rain = 0
KME1 220249Z 12004KT 29/14 A2995 RMK A01 T02870139  RH  040%=      5-min Rain = 0
KME1 220250Z 12004KT 29/14 A2995 RMK A01 T02870139  RH  040%=      5-min Rain = 0
KME1 220251Z 12004KT 29/14 A2995 RMK A01 T02870140  RH  040%=      5-min Rain = 0
KME1 220252Z 12005KT 29/14 A2995 RMK A01 T02870140  RH  041%=      5-min Rain = 0
KME1 220253Z 12004KT 29/14 A2995 RMK A01 T02870140  RH  041%=      5-min Rain = 0
KME1 220254Z 12004KT 29/14 A2995 RMK A01 T02860141  RH  041%=      5-min Rain = 0
KME1 220255Z 12004KT 29/14 A2995 RMK A01 T02850141  RH  041%=      5-min Rain = 0
KME1 220256Z 12004KT 29/14 A2995 RMK A01 T02850141  RH  041%=      5-min Rain = 0
KME1 220257Z 12004KT 28/14 A2995 RMK A01 T02840141  RH  042%=      5-min Rain = 0
KME1 220258Z 12004KT 28/14 A2995 RMK A01 T02830141  RH  042%=      5-min Rain = 0
KME1 220259Z 13004KT 28/14 A2995 RMK A01 T02820141  RH  042%=      5-min Rain = 0
KME1 220300Z 12004KT 28/14 A2995 RMK A01 T02820141  RH  042%=      5-min Rain = 0
KME1 220301Z 12004KT 28/14 A2995 RMK A01 T02810141  RH  042%=      5-min Rain = 0
KME1 220302Z 12004KT 28/14 A2996 RMK A01 T02820141  RH  042%=      5-min Rain = 0
KME1 220303Z 12003KT 28/14 A2996 RMK A01 T02820141  RH  042%=      5-min Rain = 0
KME1 220304Z 12003KT 28/14 A2996 RMK A01 T02820142  RH  042%=      5-min Rain = 0
KME1 220305Z 12003KT 28/14 A2996 RMK A01 T02810142  RH  043%=      5-min Rain = 0
KME1 220306Z 12003KT 28/14 A2996 RMK A01 T02800144  RH  043%=      5-min Rain = 0
KME1 220307Z 12003KT 28/14 A2996 RMK A01 T02800144  RH  043%=      5-min Rain = 0
KME1 220308Z 12003KT 28/14 A2996 RMK A01 T02790142  RH  043%=      5-min Rain = 0
KME1 220309Z 12003KT 28/14 A2996 RMK A01 T02790140  RH  043%=      5-min Rain = 0
KME1 220310Z 12003KT 28/14 A2996 RMK A01 T02790142  RH  043%=      5-min Rain = 0
KME1 220311Z 12003KT 28/14 A2996 RMK A01 T02790142  RH  043%=      5-min Rain = 0
KME1 220312Z 12003KT 28/14 A2996 RMK A01 T02790142  RH  043%=      5-min Rain = 0
KME1 220313Z 12003KT 28/14 A2996 RMK A01 T02790141  RH  043%=      5-min Rain = 0
KME1 220314Z 11003KT 28/14 A2996 RMK A01 T02800140  RH  042%=      5-min Rain = 0
KME1 220315Z 11003KT 28/14 A2996 RMK A01 T02810141  RH  042%=      5-min Rain = 0
KME1 220316Z 11003KT 28/14 A2996 RMK A01 T02810143  RH  043%=      5-min Rain = 0
KME1 220317Z 11003KT 28/14 A2996 RMK A01 T02800143  RH  043%=      5-min Rain = 0
KME1 220318Z 10003KT 28/14 A2996 RMK A01 T02790144  RH  043%=      5-min Rain = 0
KME1 220319Z 10002KT 28/14 A2996 RMK A01 T02790144  RH  044%=      5-min Rain = 0
KME1 220320Z 10002KT 28/15 A2996 RMK A01 T02780145  RH  044%=      5-min Rain = 0
KME1 220321Z 10002KT 28/15 A2996 RMK A01 T02760148  RH  046%=      5-min Rain = 0
KME1 220322Z 11001KT 27/15 A2996 RMK A01 T02710148  RH  047%=      5-min Rain = 0
KME1 220323Z 10002KT 27/15 A2996 RMK A01 T02680146  RH  047%=      5-min Rain = 0
KME1 220324Z 11001KT 27/15 A2996 RMK A01 T02660147  RH  048%=      5-min Rain = 0
KME1 220325Z 11002KT 27/15 A2996 RMK A01 T02650147  RH  048%=      5-min Rain = 0
KME1 220326Z 10001KT 26/15 A2996 RMK A01 T02630146  RH  048%=      5-min Rain = 0
KME1 220327Z 09001KT 26/15 A2996 RMK A01 T02630145  RH  048%=      5-min Rain = 0
KME1 220328Z 09001KT 26/14 A2997 RMK A01 T02630143  RH  048%=      5-min Rain = 0
KME1 220329Z 09001KT 26/14 A2997 RMK A01 T02630144  RH  048%=      5-min Rain = 0
KME1 220330Z 08001KT 26/15 A2997 RMK A01 T02640148  RH  049%=      5-min Rain = 0
KME1 220331Z 10001KT 26/15 A2997 RMK A01 T02630147  RH  049%=      5-min Rain = 0
KME1 220332Z 08001KT 26/15 A2997 RMK A01 T02620148  RH  049%=      5-min Rain = 0
KME1 220333Z 08001KT 26/15 A2997 RMK A01 T02610151  RH  050%=      5-min Rain = 0
KME1 220334Z 07001KT 26/15 A2997 RMK A01 T02600148  RH  050%=      5-min Rain = 0
KME1 220335Z 08002KT 26/15 A2997 RMK A01 T02590148  RH  050%=      5-min Rain = 0
KME1 220336Z 09001KT 26/15 A2997 RMK A01 T02590150  RH  051%=      5-min Rain = 0
KME1 220337Z 09001KT 26/15 A2997 RMK A01 T02580151  RH  051%=      5-min Rain = 0
KME1 220338Z 07001KT 26/16 A2997 RMK A01 T02570155  RH  053%=      5-min Rain = 0
KME1 220339Z 10000KT 26/15 A2997 RMK A01 T02550154  RH  053%=      5-min Rain = 0
KME1 220340Z 13000KT 25/15 A2997 RMK A01 T02530153  RH  054%=      5-min Rain = 0
KME1 220341Z 11000KT 25/15 A2997 RMK A01 T02520153  RH  054%=      5-min Rain = 0
KME1 220342Z 13000KT 25/15 A2997 RMK A01 T02510153  RH  055%=      5-min Rain = 0
KME1 220343Z 13000KT 25/15 A2997 RMK A01 T02500152  RH  055%=      5-min Rain = 0
KME1 220344Z 12000KT 25/15 A2997 RMK A01 T02490154  RH  055%=      5-min Rain = 0
KME1 220345Z 14000KT 25/15 A2997 RMK A01 T02490152  RH  055%=      5-min Rain = 0
KME1 220346Z 17000KT 25/15 A2997 RMK A01 T02480151  RH  055%=      5-min Rain = 0
KME1 220347Z 17000KT 25/15 A2997 RMK A01 T02480147  RH  053%=      5-min Rain = 0
KME1 220348Z 16001KT 25/15 A2997 RMK A01 T02500147  RH  053%=      5-min Rain = 0
KME1 220349Z 17002KT 25/14 A2997 RMK A01 T02520144  RH  051%=      5-min Rain = 0
KME1 220350Z 17001KT 26/15 A2997 RMK A01 T02560146  RH  050%=      5-min Rain = 0
KME1 220351Z 18001KT 26/15 A2997 RMK A01 T02590147  RH  050%=      5-min Rain = 0
KME1 220352Z 17002KT 26/15 A2997 RMK A01 T02590149  RH  051%=      5-min Rain = 0
KME1 220353Z 17002KT 26/15 A2997 RMK A01 T02590148  RH  050%=      5-min Rain = 0
KME1 220354Z 18002KT 26/15 A2997 RMK A01 T02600148  RH  050%=      5-min Rain = 0
KME1 220355Z 19002KT 26/15 A2997 RMK A01 T02600149  RH  051%=      5-min Rain = 0
KME1 220356Z 18002KT 26/15 A2997 RMK A01 T02590147  RH  050%=      5-min Rain = 0
KME1 220357Z 20002KT 26/15 A2997 RMK A01 T02590147  RH  050%=      5-min Rain = 0
KME1 220358Z 18002KT 26/15 A2998 RMK A01 T02590147  RH  050%=      5-min Rain = 0
KME1 220359Z 19001KT 26/15 A2997 RMK A01 T02590148  RH  050%=      5-min Rain = 0
KME1 220400Z 19002KT 26/15 A2997 RMK A01 T02590149  RH  051%=      5-min Rain = 0
KME1 220401Z 20002KT 26/15 A2997 RMK A01 T02580148  RH  050%=      5-min Rain = 0
KME1 220402Z 20003KT 26/15 A2997 RMK A01 T02580150  RH  051%=      5-min Rain = 0
KME1 220403Z 19002KT 26/15 A2997 RMK A01 T02570149  RH  051%=      5-min Rain = 0
KME1 220404Z 19002KT 26/15 A2997 RMK A01 T02570148  RH  051%=      5-min Rain = 0
KME1 220405Z 17002KT 26/15 A2997 RMK A01 T02560148  RH  051%=      5-min Rain = 0
KME1 220406Z 18002KT 26/15 A2997 RMK A01 T02570148  RH  051%=      5-min Rain = 0
KME1 220407Z 17002KT 26/15 A2997 RMK A01 T02560147  RH  051%=      5-min Rain = 0
KME1 220408Z 17002KT 26/15 A2997 RMK A01 T02570148  RH  051%=      5-min Rain = 0
KME1 220409Z 17002KT 26/15 A2997 RMK A01 T02580148  RH  051%=      5-min Rain = 0
KME1 220410Z 16002KT 26/15 A2997 RMK A01 T02580147  RH  050%=      5-min Rain = 0
KME1 220411Z 16003KT 26/15 A2997 RMK A01 T02580147  RH  050%=      5-min Rain = 0
KME1 220412Z 16003KT 26/15 A2998 RMK A01 T02580148  RH  050%=      5-min Rain = 0
KME1 220413Z 17003KT 26/15 A2998 RMK A01 T02590148  RH  050%=      5-min Rain = 0
KME1 220414Z 17003KT 26/15 A2998 RMK A01 T02600148  RH  050%=      5-min Rain = 0
KME1 220415Z 17002KT 26/15 A2998 RMK A01 T02600149  RH  050%=      5-min Rain = 0
KME1 220416Z 18002KT 26/15 A2998 RMK A01 T02600150  RH  051%=      5-min Rain = 0
KME1 220417Z 18002KT 26/15 A2998 RMK A01 T02590150  RH  051%=      5-min Rain = 0
KME1 220418Z 20003KT 26/15 A2998 RMK A01 T02580150  RH  051%=      5-min Rain = 0
KME1 220419Z 19003KT 26/15 A2998 RMK A01 T02570151  RH  052%=      5-min Rain = 0
KME1 220420Z 19003KT 26/15 A2998 RMK A01 T02560151  RH  052%=      5-min Rain = 0
KME1 220421Z 19003KT 26/15 A2998 RMK A01 T02550150  RH  052%=      5-min Rain = 0
KME1 220422Z 18003KT 25/15 A2998 RMK A01 T02540148  RH  052%=      5-min Rain = 0
KME1 220423Z 20002KT 25/15 A2998 RMK A01 T02530147  RH  052%=      5-min Rain = 0
KME1 220424Z 19002KT 25/15 A2998 RMK A01 T02530148  RH  052%=      5-min Rain = 0
KME1 220425Z 19002KT 25/15 A2998 RMK A01 T02540148  RH  052%=      5-min Rain = 0
KME1 220426Z 18002KT 25/15 A2998 RMK A01 T02540148  RH  052%=      5-min Rain = 0
KME1 220427Z 19002KT 26/15 A2998 RMK A01 T02550148  RH  052%=      5-min Rain = 0
KME1 220428Z 18002KT 26/15 A2998 RMK A01 T02550148  RH  052%=      5-min Rain = 0
KME1 220429Z 19002KT 26/15 A2998 RMK A01 T02550148  RH  051%=      5-min Rain = 0
KME1 220430Z 18002KT 26/15 A2998 RMK A01 T02560149  RH  052%=      5-min Rain = 0
KME1 220431Z 19002KT 26/15 A2998 RMK A01 T02560149  RH  052%=      5-min Rain = 0
KME1 220432Z 19002KT 26/15 A2998 RMK A01 T02560150  RH  052%=      5-min Rain = 0
KME1 220433Z 20002KT 26/15 A2998 RMK A01 T02550150  RH  052%=      5-min Rain = 0
KME1 220434Z 21002KT 25/15 A2998 RMK A01 T02540151  RH  053%=      5-min Rain = 0
KME1 220435Z 21002KT 25/15 A2998 RMK A01 T02530151  RH  053%=      5-min Rain = 0
KME1 220436Z 21002KT 25/15 A2998 RMK A01 T02520152  RH  054%=      5-min Rain = 0
KME1 220437Z 20002KT 25/15 A2998 RMK A01 T02510151  RH  054%=      5-min Rain = 0
KME1 220438Z 21002KT 25/15 A2998 RMK A01 T02500151  RH  054%=      5-min Rain = 0
KME1 220439Z 20003KT 25/15 A2998 RMK A01 T02500151  RH  054%=      5-min Rain = 0
KME1 220440Z 20002KT 25/15 A2998 RMK A01 T02490150  RH  054%=      5-min Rain = 0
KME1 220441Z 20002KT 25/15 A2998 RMK A01 T02490150  RH  054%=      5-min Rain = 0
KME1 220442Z 20002KT 25/15 A2998 RMK A01 T02500150  RH  054%=      5-min Rain = 0
KME1 220443Z 20002KT 25/15 A2998 RMK A01 T02500150  RH  054%=      5-min Rain = 0
KME1 220444Z 20002KT 25/15 A2999 RMK A01 T02500151  RH  054%=      5-min Rain = 0
KME1 220445Z 19002KT 25/16 A2999 RMK A01 T02500155  RH  056%=      5-min Rain = 0
KME1 220446Z 20002KT 25/16 A2999 RMK A01 T02500155  RH  055%=      5-min Rain = 0
KME1 220447Z 19002KT 25/16 A2999 RMK A01 T02500155  RH  056%=      5-min Rain = 0
KME1 220448Z 19002KT 25/16 A2999 RMK A01 T02490156  RH  056%=      5-min Rain = 0
KME1 220449Z 20002KT 25/16 A2999 RMK A01 T02480156  RH  056%=      5-min Rain = 0
KME1 220450Z 21002KT 25/16 A2999 RMK A01 T02480155  RH  056%=      5-min Rain = 0
KME1 220451Z 22002KT 25/15 A2999 RMK A01 T02470154  RH  056%=      5-min Rain = 0
KME1 220452Z 21002KT 25/15 A2999 RMK A01 T02460152  RH  056%=      5-min Rain = 0
KME1 220453Z 21002KT 25/15 A2999 RMK A01 T02460153  RH  056%=      5-min Rain = 0
KME1 220454Z 22002KT 25/15 A2999 RMK A01 T02460154  RH  056%=      5-min Rain = 0
KME1 220455Z 23002KT 25/15 A2999 RMK A01 T02450154  RH  057%=      5-min Rain = 0
KME1 220456Z 22002KT 24/15 A2999 RMK A01 T02440154  RH  057%=      5-min Rain = 0
KME1 220457Z 22003KT 24/15 A2999 RMK A01 T02430153  RH  057%=      5-min Rain = 0
KME1 220458Z 22003KT 24/15 A2999 RMK A01 T02420152  RH  057%=      5-min Rain = 0
KME1 220459Z 22003KT 24/15 A2999 RMK A01 T02420152  RH  057%=      5-min Rain = 0

Page generated in 0.0751 seconds.